<?xml version="1.0" encoding="UTF-8" standalone="no" ?>
<gpx xmlns="http://www.topografix.com/GPX/1/1" xmlns:xsi="http://www.w3.org/2001/XMLSchema-instance" xsi:schemaLocation="http://www.topografix.com/GPX/1/1 http://www.topografix.com/GPX/1/1/gpx.xsd" version="1.1" creator="VisuGPX - https://www.visugpx.com">
  <metadata>
    <name>Seninghem Randon​née 22 km - 300 D+</name>
  </metadata>
  <trk>
    <name><![CDATA[Seninghem Randon​née 22 km - 300 D+]]></name>
    <trkseg>
      <trkpt lat="50.69898" lon="2.05079">
        <ele>80.67</ele>
        <time>2025-11-08T16:40:14.000Z</time>
      </trkpt>
      <trkpt lat="50.69898" lon="2.05051">
        <ele>81.03</ele>
        <time>2025-11-08T16:40:14.024Z</time>
      </trkpt>
      <trkpt lat="50.69888" lon="2.05047">
        <ele>81.27</ele>
        <time>2025-11-08T16:40:14.062Z</time>
      </trkpt>
      <trkpt lat="50.69881" lon="2.05042">
        <ele>81.49</ele>
        <time>2025-11-08T16:40:14.110Z</time>
      </trkpt>
      <trkpt lat="50.69873" lon="2.05034">
        <ele>81.71</ele>
        <time>2025-11-08T16:40:14.170Z</time>
      </trkpt>
      <trkpt lat="50.69871" lon="2.05023">
        <ele>81.95</ele>
        <time>2025-11-08T16:40:14.240Z</time>
      </trkpt>
      <trkpt lat="50.69866" lon="2.05016">
        <ele>82.19</ele>
        <time>2025-11-08T16:40:14.319Z</time>
      </trkpt>
      <trkpt lat="50.69861" lon="2.05011">
        <ele>82.39</ele>
        <time>2025-11-08T16:40:14.406Z</time>
      </trkpt>
      <trkpt lat="50.69857" lon="2.04998">
        <ele>82.65</ele>
        <time>2025-11-08T16:40:14.505Z</time>
      </trkpt>
      <trkpt lat="50.69849" lon="2.04951">
        <ele>82.99</ele>
        <time>2025-11-08T16:40:14.645Z</time>
      </trkpt>
      <trkpt lat="50.69842" lon="2.04936">
        <ele>83.27</ele>
        <time>2025-11-08T16:40:14.801Z</time>
      </trkpt>
      <trkpt lat="50.69831" lon="2.04926">
        <ele>83.6</ele>
        <time>2025-11-08T16:40:14.974Z</time>
      </trkpt>
      <trkpt lat="50.69815" lon="2.04918">
        <ele>83.97</ele>
        <time>2025-11-08T16:40:15.170Z</time>
      </trkpt>
      <trkpt lat="50.69799" lon="2.0491">
        <ele>84.33</ele>
        <time>2025-11-08T16:40:15.388Z</time>
      </trkpt>
      <trkpt lat="50.69784" lon="2.04893">
        <ele>84.78</ele>
        <time>2025-11-08T16:40:15.630Z</time>
      </trkpt>
      <trkpt lat="50.6977" lon="2.04876">
        <ele>85.26</ele>
        <time>2025-11-08T16:40:15.896Z</time>
      </trkpt>
      <trkpt lat="50.69765" lon="2.04866">
        <ele>85.76</ele>
        <time>2025-11-08T16:40:16.173Z</time>
      </trkpt>
      <trkpt lat="50.69753" lon="2.04847">
        <ele>86.28</ele>
        <time>2025-11-08T16:40:16.473Z</time>
      </trkpt>
      <trkpt lat="50.69759" lon="2.048">
        <ele>87.08</ele>
        <time>2025-11-08T16:40:16.813Z</time>
      </trkpt>
      <trkpt lat="50.69764" lon="2.04753">
        <ele>87.95</ele>
        <time>2025-11-08T16:40:17.194Z</time>
      </trkpt>
      <trkpt lat="50.69763" lon="2.04724">
        <ele>88.76</ele>
        <time>2025-11-08T16:40:17.599Z</time>
      </trkpt>
      <trkpt lat="50.69763" lon="2.04696">
        <ele>89.58</ele>
        <time>2025-11-08T16:40:18.028Z</time>
      </trkpt>
      <trkpt lat="50.69761" lon="2.04662">
        <ele>90.42</ele>
        <time>2025-11-08T16:40:18.486Z</time>
      </trkpt>
      <trkpt lat="50.69756" lon="2.04633">
        <ele>91.22</ele>
        <time>2025-11-08T16:40:18.970Z</time>
      </trkpt>
      <trkpt lat="50.69751" lon="2.04604">
        <ele>91.99</ele>
        <time>2025-11-08T16:40:19.479Z</time>
      </trkpt>
      <trkpt lat="50.69748" lon="2.04585">
        <ele>92.77</ele>
        <time>2025-11-08T16:40:20.005Z</time>
      </trkpt>
      <trkpt lat="50.69745" lon="2.04543">
        <ele>93.63</ele>
        <time>2025-11-08T16:40:20.566Z</time>
      </trkpt>
      <trkpt lat="50.69742" lon="2.04501">
        <ele>94.58</ele>
        <time>2025-11-08T16:40:21.163Z</time>
      </trkpt>
      <trkpt lat="50.6974" lon="2.04459">
        <ele>95.48</ele>
        <time>2025-11-08T16:40:21.796Z</time>
      </trkpt>
      <trkpt lat="50.69737" lon="2.04418">
        <ele>96.37</ele>
        <time>2025-11-08T16:40:22.464Z</time>
      </trkpt>
      <trkpt lat="50.69734" lon="2.04373">
        <ele>97.21</ele>
        <time>2025-11-08T16:40:23.171Z</time>
      </trkpt>
      <trkpt lat="50.6973" lon="2.04327">
        <ele>97.93</ele>
        <time>2025-11-08T16:40:23.917Z</time>
      </trkpt>
      <trkpt lat="50.69727" lon="2.04282">
        <ele>98.57</ele>
        <time>2025-11-08T16:40:24.701Z</time>
      </trkpt>
      <trkpt lat="50.69725" lon="2.04251">
        <ele>99.2</ele>
        <time>2025-11-08T16:40:25.511Z</time>
      </trkpt>
      <trkpt lat="50.69723" lon="2.04221">
        <ele>99.81</ele>
        <time>2025-11-08T16:40:26.347Z</time>
      </trkpt>
      <trkpt lat="50.69719" lon="2.04184">
        <ele>100.37</ele>
        <time>2025-11-08T16:40:27.215Z</time>
      </trkpt>
      <trkpt lat="50.69715" lon="2.04147">
        <ele>100.95</ele>
        <time>2025-11-08T16:40:28.114Z</time>
      </trkpt>
      <trkpt lat="50.69712" lon="2.0411">
        <ele>101.55</ele>
        <time>2025-11-08T16:40:29.045Z</time>
      </trkpt>
      <trkpt lat="50.69708" lon="2.04074">
        <ele>101.98</ele>
        <time>2025-11-08T16:40:30.007Z</time>
      </trkpt>
      <trkpt lat="50.69705" lon="2.04037">
        <ele>102.4</ele>
        <time>2025-11-08T16:40:31.001Z</time>
      </trkpt>
      <trkpt lat="50.69704" lon="2.03991">
        <ele>102.79</ele>
        <time>2025-11-08T16:40:32.034Z</time>
      </trkpt>
      <trkpt lat="50.69703" lon="2.03945">
        <ele>103.28</ele>
        <time>2025-11-08T16:40:33.106Z</time>
      </trkpt>
      <trkpt lat="50.69703" lon="2.03899">
        <ele>103.8</ele>
        <time>2025-11-08T16:40:34.217Z</time>
      </trkpt>
      <trkpt lat="50.69702" lon="2.03854">
        <ele>104.36</ele>
        <time>2025-11-08T16:40:35.366Z</time>
      </trkpt>
      <trkpt lat="50.69699" lon="2.03809">
        <ele>105.04</ele>
        <time>2025-11-08T16:40:36.553Z</time>
      </trkpt>
      <trkpt lat="50.69695" lon="2.03765">
        <ele>105.66</ele>
        <time>2025-11-08T16:40:37.778Z</time>
      </trkpt>
      <trkpt lat="50.69692" lon="2.0372">
        <ele>106.24</ele>
        <time>2025-11-08T16:40:39.041Z</time>
      </trkpt>
      <trkpt lat="50.69689" lon="2.03676">
        <ele>106.89</ele>
        <time>2025-11-08T16:40:40.342Z</time>
      </trkpt>
      <trkpt lat="50.69689" lon="2.03659">
        <ele>107.63</ele>
        <time>2025-11-08T16:40:41.657Z</time>
      </trkpt>
      <trkpt lat="50.69695" lon="2.03612">
        <ele>108.52</ele>
        <time>2025-11-08T16:40:43.013Z</time>
      </trkpt>
      <trkpt lat="50.69701" lon="2.03566">
        <ele>109.38</ele>
        <time>2025-11-08T16:40:44.409Z</time>
      </trkpt>
      <trkpt lat="50.69702" lon="2.03531">
        <ele>110.17</ele>
        <time>2025-11-08T16:40:45.835Z</time>
      </trkpt>
      <trkpt lat="50.69695" lon="2.03492">
        <ele>111.09</ele>
        <time>2025-11-08T16:40:47.295Z</time>
      </trkpt>
      <trkpt lat="50.69689" lon="2.03452">
        <ele>112.05</ele>
        <time>2025-11-08T16:40:48.790Z</time>
      </trkpt>
      <trkpt lat="50.69682" lon="2.03413">
        <ele>113.03</ele>
        <time>2025-11-08T16:40:50.319Z</time>
      </trkpt>
      <trkpt lat="50.69676" lon="2.03374">
        <ele>114.03</ele>
        <time>2025-11-08T16:40:51.882Z</time>
      </trkpt>
      <trkpt lat="50.69661" lon="2.03343">
        <ele>114.98</ele>
        <time>2025-11-08T16:40:53.478Z</time>
      </trkpt>
      <trkpt lat="50.69646" lon="2.03312">
        <ele>115.83</ele>
        <time>2025-11-08T16:40:55.107Z</time>
      </trkpt>
      <trkpt lat="50.69631" lon="2.03281">
        <ele>116.72</ele>
        <time>2025-11-08T16:40:56.770Z</time>
      </trkpt>
      <trkpt lat="50.69616" lon="2.0325">
        <ele>117.66</ele>
        <time>2025-11-08T16:40:58.465Z</time>
      </trkpt>
      <trkpt lat="50.69603" lon="2.03233">
        <ele>118.6</ele>
        <time>2025-11-08T16:41:00.183Z</time>
      </trkpt>
      <trkpt lat="50.6959" lon="2.03216">
        <ele>119.54</ele>
        <time>2025-11-08T16:41:01.924Z</time>
      </trkpt>
      <trkpt lat="50.69582" lon="2.03198">
        <ele>120.46</ele>
        <time>2025-11-08T16:41:03.683Z</time>
      </trkpt>
      <trkpt lat="50.69556" lon="2.03171">
        <ele>121.46</ele>
        <time>2025-11-08T16:41:05.484Z</time>
      </trkpt>
      <trkpt lat="50.69538" lon="2.03149">
        <ele>122.39</ele>
        <time>2025-11-08T16:41:07.315Z</time>
      </trkpt>
      <trkpt lat="50.6952" lon="2.03128">
        <ele>123.29</ele>
        <time>2025-11-08T16:41:09.176Z</time>
      </trkpt>
      <trkpt lat="50.69509" lon="2.03104">
        <ele>124.21</ele>
        <time>2025-11-08T16:41:11.062Z</time>
      </trkpt>
      <trkpt lat="50.69498" lon="2.03081">
        <ele>125.16</ele>
        <time>2025-11-08T16:41:12.973Z</time>
      </trkpt>
      <trkpt lat="50.69488" lon="2.03037">
        <ele>126.16</ele>
        <time>2025-11-08T16:41:14.923Z</time>
      </trkpt>
      <trkpt lat="50.6948" lon="2.02991">
        <ele>127.14</ele>
        <time>2025-11-08T16:41:16.914Z</time>
      </trkpt>
      <trkpt lat="50.69473" lon="2.02944">
        <ele>128.11</ele>
        <time>2025-11-08T16:41:18.945Z</time>
      </trkpt>
      <trkpt lat="50.69465" lon="2.02898">
        <ele>129.12</ele>
        <time>2025-11-08T16:41:21.017Z</time>
      </trkpt>
      <trkpt lat="50.69458" lon="2.02851">
        <ele>130.18</ele>
        <time>2025-11-08T16:41:23.130Z</time>
      </trkpt>
      <trkpt lat="50.6945" lon="2.02805">
        <ele>131.21</ele>
        <time>2025-11-08T16:41:25.283Z</time>
      </trkpt>
      <trkpt lat="50.69443" lon="2.02759">
        <ele>132.31</ele>
        <time>2025-11-08T16:41:27.476Z</time>
      </trkpt>
      <trkpt lat="50.69436" lon="2.02734">
        <ele>133.36</ele>
        <time>2025-11-08T16:41:29.692Z</time>
      </trkpt>
      <trkpt lat="50.69429" lon="2.0271">
        <ele>134.46</ele>
        <time>2025-11-08T16:41:31.931Z</time>
      </trkpt>
      <trkpt lat="50.69416" lon="2.02669">
        <ele>135.49</ele>
        <time>2025-11-08T16:41:34.209Z</time>
      </trkpt>
      <trkpt lat="50.69403" lon="2.02628">
        <ele>136.56</ele>
        <time>2025-11-08T16:41:36.526Z</time>
      </trkpt>
      <trkpt lat="50.69389" lon="2.02588">
        <ele>137.55</ele>
        <time>2025-11-08T16:41:38.881Z</time>
      </trkpt>
      <trkpt lat="50.69376" lon="2.02547">
        <ele>138.55</ele>
        <time>2025-11-08T16:41:41.275Z</time>
      </trkpt>
      <trkpt lat="50.69363" lon="2.02506">
        <ele>139.51</ele>
        <time>2025-11-08T16:41:43.708Z</time>
      </trkpt>
      <trkpt lat="50.6935" lon="2.02465">
        <ele>140.49</ele>
        <time>2025-11-08T16:41:46.180Z</time>
      </trkpt>
      <trkpt lat="50.69337" lon="2.02425">
        <ele>141.49</ele>
        <time>2025-11-08T16:41:48.690Z</time>
      </trkpt>
      <trkpt lat="50.6933" lon="2.02396">
        <ele>142.49</ele>
        <time>2025-11-08T16:41:51.226Z</time>
      </trkpt>
      <trkpt lat="50.69323" lon="2.02367">
        <ele>143.4</ele>
        <time>2025-11-08T16:41:53.789Z</time>
      </trkpt>
      <trkpt lat="50.69317" lon="2.02338">
        <ele>144.29</ele>
        <time>2025-11-08T16:41:56.378Z</time>
      </trkpt>
      <trkpt lat="50.69311" lon="2.02309">
        <ele>145.09</ele>
        <time>2025-11-08T16:41:58.992Z</time>
      </trkpt>
      <trkpt lat="50.693" lon="2.02267">
        <ele>145.86</ele>
        <time>2025-11-08T16:42:01.645Z</time>
      </trkpt>
      <trkpt lat="50.69289" lon="2.02225">
        <ele>146.62</ele>
        <time>2025-11-08T16:42:04.336Z</time>
      </trkpt>
      <trkpt lat="50.69278" lon="2.02184">
        <ele>147.37</ele>
        <time>2025-11-08T16:42:07.065Z</time>
      </trkpt>
      <trkpt lat="50.69274" lon="2.02152">
        <ele>148.03</ele>
        <time>2025-11-08T16:42:09.822Z</time>
      </trkpt>
      <trkpt lat="50.69269" lon="2.02119">
        <ele>148.58</ele>
        <time>2025-11-08T16:42:12.607Z</time>
      </trkpt>
      <trkpt lat="50.69265" lon="2.02087">
        <ele>149.17</ele>
        <time>2025-11-08T16:42:15.420Z</time>
      </trkpt>
      <trkpt lat="50.69257" lon="2.02047">
        <ele>149.67</ele>
        <time>2025-11-08T16:42:18.268Z</time>
      </trkpt>
      <trkpt lat="50.6925" lon="2.02008">
        <ele>150.09</ele>
        <time>2025-11-08T16:42:21.151Z</time>
      </trkpt>
      <trkpt lat="50.69236" lon="2.0198">
        <ele>150.42</ele>
        <time>2025-11-08T16:42:24.064Z</time>
      </trkpt>
      <trkpt lat="50.69222" lon="2.01953">
        <ele>150.73</ele>
        <time>2025-11-08T16:42:27.007Z</time>
      </trkpt>
      <trkpt lat="50.69201" lon="2.01934">
        <ele>150.88</ele>
        <time>2025-11-08T16:42:29.981Z</time>
      </trkpt>
      <trkpt lat="50.69181" lon="2.01916">
        <ele>150.93</ele>
        <time>2025-11-08T16:42:32.987Z</time>
      </trkpt>
      <trkpt lat="50.69168" lon="2.019">
        <ele>151</ele>
        <time>2025-11-08T16:42:36.014Z</time>
      </trkpt>
      <trkpt lat="50.69156" lon="2.01885">
        <ele>151.02</ele>
        <time>2025-11-08T16:42:39.062Z</time>
      </trkpt>
      <trkpt lat="50.69143" lon="2.01862">
        <ele>151.06</ele>
        <time>2025-11-08T16:42:42.137Z</time>
      </trkpt>
      <trkpt lat="50.69131" lon="2.01834">
        <ele>151.17</ele>
        <time>2025-11-08T16:42:45.240Z</time>
      </trkpt>
      <trkpt lat="50.69125" lon="2.01804">
        <ele>151.31</ele>
        <time>2025-11-08T16:42:48.369Z</time>
      </trkpt>
      <trkpt lat="50.6912" lon="2.01775">
        <ele>151.44</ele>
        <time>2025-11-08T16:42:51.524Z</time>
      </trkpt>
      <trkpt lat="50.69118" lon="2.01728">
        <ele>151.72</ele>
        <time>2025-11-08T16:42:54.719Z</time>
      </trkpt>
      <trkpt lat="50.69109" lon="2.01683">
        <ele>151.93</ele>
        <time>2025-11-08T16:42:57.954Z</time>
      </trkpt>
      <trkpt lat="50.69092" lon="2.01647">
        <ele>151.92</ele>
        <time>2025-11-08T16:43:01.227Z</time>
      </trkpt>
      <trkpt lat="50.69077" lon="2.01627">
        <ele>151.83</ele>
        <time>2025-11-08T16:43:04.526Z</time>
      </trkpt>
      <trkpt lat="50.69062" lon="2.01608">
        <ele>151.65</ele>
        <time>2025-11-08T16:43:07.851Z</time>
      </trkpt>
      <trkpt lat="50.69042" lon="2.01593">
        <ele>151.38</ele>
        <time>2025-11-08T16:43:11.206Z</time>
      </trkpt>
      <trkpt lat="50.69029" lon="2.01552">
        <ele>151.22</ele>
        <time>2025-11-08T16:43:14.600Z</time>
      </trkpt>
      <trkpt lat="50.69024" lon="2.01524">
        <ele>150.97</ele>
        <time>2025-11-08T16:43:18.018Z</time>
      </trkpt>
      <trkpt lat="50.69019" lon="2.01497">
        <ele>150.66</ele>
        <time>2025-11-08T16:43:21.460Z</time>
      </trkpt>
      <trkpt lat="50.69016" lon="2.01464">
        <ele>150.29</ele>
        <time>2025-11-08T16:43:24.930Z</time>
      </trkpt>
      <trkpt lat="50.69014" lon="2.01431">
        <ele>149.82</ele>
        <time>2025-11-08T16:43:28.429Z</time>
      </trkpt>
      <trkpt lat="50.69018" lon="2.01385">
        <ele>149.37</ele>
        <time>2025-11-08T16:43:31.967Z</time>
      </trkpt>
      <trkpt lat="50.69023" lon="2.01351">
        <ele>148.87</ele>
        <time>2025-11-08T16:43:35.535Z</time>
      </trkpt>
      <trkpt lat="50.69027" lon="2.01316">
        <ele>148.33</ele>
        <time>2025-11-08T16:43:39.133Z</time>
      </trkpt>
      <trkpt lat="50.69032" lon="2.01282">
        <ele>147.68</ele>
        <time>2025-11-08T16:43:42.760Z</time>
      </trkpt>
      <trkpt lat="50.69037" lon="2.01258">
        <ele>146.88</ele>
        <time>2025-11-08T16:43:46.409Z</time>
      </trkpt>
      <trkpt lat="50.69035" lon="2.01216">
        <ele>145.8</ele>
        <time>2025-11-08T16:43:50.093Z</time>
      </trkpt>
      <trkpt lat="50.69033" lon="2.01174">
        <ele>144.78</ele>
        <time>2025-11-08T16:43:53.813Z</time>
      </trkpt>
      <trkpt lat="50.69027" lon="2.01127">
        <ele>143.78</ele>
        <time>2025-11-08T16:43:57.574Z</time>
      </trkpt>
      <trkpt lat="50.69022" lon="2.0108">
        <ele>142.72</ele>
        <time>2025-11-08T16:44:01.375Z</time>
      </trkpt>
      <trkpt lat="50.69017" lon="2.0105">
        <ele>141.61</ele>
        <time>2025-11-08T16:44:05.202Z</time>
      </trkpt>
      <trkpt lat="50.69014" lon="2.01016">
        <ele>140.59</ele>
        <time>2025-11-08T16:44:09.059Z</time>
      </trkpt>
      <trkpt lat="50.69012" lon="2.00982">
        <ele>139.63</ele>
        <time>2025-11-08T16:44:12.945Z</time>
      </trkpt>
      <trkpt lat="50.69009" lon="2.00948">
        <ele>138.73</ele>
        <time>2025-11-08T16:44:16.860Z</time>
      </trkpt>
      <trkpt lat="50.69006" lon="2.00912">
        <ele>137.85</ele>
        <time>2025-11-08T16:44:20.805Z</time>
      </trkpt>
      <trkpt lat="50.69003" lon="2.00877">
        <ele>137.15</ele>
        <time>2025-11-08T16:44:24.780Z</time>
      </trkpt>
      <trkpt lat="50.68981" lon="2.00846">
        <ele>136.55</ele>
        <time>2025-11-08T16:44:28.795Z</time>
      </trkpt>
      <trkpt lat="50.68975" lon="2.00831">
        <ele>136.1</ele>
        <time>2025-11-08T16:44:32.825Z</time>
      </trkpt>
      <trkpt lat="50.68966" lon="2.0079">
        <ele>135.82</ele>
        <time>2025-11-08T16:44:36.892Z</time>
      </trkpt>
      <trkpt lat="50.68977" lon="2.00785">
        <ele>135.59</ele>
        <time>2025-11-08T16:44:40.974Z</time>
      </trkpt>
      <trkpt lat="50.6899" lon="2.00755">
        <ele>135.49</ele>
        <time>2025-11-08T16:44:45.086Z</time>
      </trkpt>
      <trkpt lat="50.69003" lon="2.00726">
        <ele>135.57</ele>
        <time>2025-11-08T16:44:49.229Z</time>
      </trkpt>
      <trkpt lat="50.69018" lon="2.00692">
        <ele>135.91</ele>
        <time>2025-11-08T16:44:53.407Z</time>
      </trkpt>
      <trkpt lat="50.69034" lon="2.00657">
        <ele>136.21</ele>
        <time>2025-11-08T16:44:57.621Z</time>
      </trkpt>
      <trkpt lat="50.69049" lon="2.00623">
        <ele>136.42</ele>
        <time>2025-11-08T16:45:01.871Z</time>
      </trkpt>
      <trkpt lat="50.69063" lon="2.00593">
        <ele>136.78</ele>
        <time>2025-11-08T16:45:06.152Z</time>
      </trkpt>
      <trkpt lat="50.69076" lon="2.00563">
        <ele>137.19</ele>
        <time>2025-11-08T16:45:10.464Z</time>
      </trkpt>
      <trkpt lat="50.6909" lon="2.00533">
        <ele>137.66</ele>
        <time>2025-11-08T16:45:14.807Z</time>
      </trkpt>
      <trkpt lat="50.69109" lon="2.00494">
        <ele>138.31</ele>
        <time>2025-11-08T16:45:19.192Z</time>
      </trkpt>
      <trkpt lat="50.69127" lon="2.00455">
        <ele>138.91</ele>
        <time>2025-11-08T16:45:23.618Z</time>
      </trkpt>
      <trkpt lat="50.69146" lon="2.00416">
        <ele>139.59</ele>
        <time>2025-11-08T16:45:28.086Z</time>
      </trkpt>
      <trkpt lat="50.69162" lon="2.00385">
        <ele>140.21</ele>
        <time>2025-11-08T16:45:32.588Z</time>
      </trkpt>
      <trkpt lat="50.69177" lon="2.00353">
        <ele>140.81</ele>
        <time>2025-11-08T16:45:37.123Z</time>
      </trkpt>
      <trkpt lat="50.69193" lon="2.00322">
        <ele>141.57</ele>
        <time>2025-11-08T16:45:41.692Z</time>
      </trkpt>
      <trkpt lat="50.69201" lon="2.00304">
        <ele>142.22</ele>
        <time>2025-11-08T16:45:46.280Z</time>
      </trkpt>
      <trkpt lat="50.69212" lon="2.00274">
        <ele>142.93</ele>
        <time>2025-11-08T16:45:50.897Z</time>
      </trkpt>
      <trkpt lat="50.69222" lon="2.00244">
        <ele>143.61</ele>
        <time>2025-11-08T16:45:55.543Z</time>
      </trkpt>
      <trkpt lat="50.6923" lon="2.00215">
        <ele>144.33</ele>
        <time>2025-11-08T16:46:00.215Z</time>
      </trkpt>
      <trkpt lat="50.69238" lon="2.00187">
        <ele>145.19</ele>
        <time>2025-11-08T16:46:04.914Z</time>
      </trkpt>
      <trkpt lat="50.69245" lon="2.00157">
        <ele>146.02</ele>
        <time>2025-11-08T16:46:09.640Z</time>
      </trkpt>
      <trkpt lat="50.69252" lon="2.00127">
        <ele>146.89</ele>
        <time>2025-11-08T16:46:14.393Z</time>
      </trkpt>
      <trkpt lat="50.69257" lon="2.00089">
        <ele>147.84</ele>
        <time>2025-11-08T16:46:19.179Z</time>
      </trkpt>
      <trkpt lat="50.69261" lon="2.0005">
        <ele>148.9</ele>
        <time>2025-11-08T16:46:23.998Z</time>
      </trkpt>
      <trkpt lat="50.69266" lon="2.00012">
        <ele>150.11</ele>
        <time>2025-11-08T16:46:28.850Z</time>
      </trkpt>
      <trkpt lat="50.69268" lon="1.99993">
        <ele>151.3</ele>
        <time>2025-11-08T16:46:33.718Z</time>
      </trkpt>
      <trkpt lat="50.6926" lon="1.99955">
        <ele>152.6</ele>
        <time>2025-11-08T16:46:38.620Z</time>
      </trkpt>
      <trkpt lat="50.6925" lon="1.99917">
        <ele>154.09</ele>
        <time>2025-11-08T16:46:43.557Z</time>
      </trkpt>
      <trkpt lat="50.6924" lon="1.9988">
        <ele>155.67</ele>
        <time>2025-11-08T16:46:48.528Z</time>
      </trkpt>
      <trkpt lat="50.69229" lon="1.99849">
        <ele>157.35</ele>
        <time>2025-11-08T16:46:53.529Z</time>
      </trkpt>
      <trkpt lat="50.69219" lon="1.99818">
        <ele>159.13</ele>
        <time>2025-11-08T16:46:58.560Z</time>
      </trkpt>
      <trkpt lat="50.69208" lon="1.99788">
        <ele>160.98</ele>
        <time>2025-11-08T16:47:03.620Z</time>
      </trkpt>
      <trkpt lat="50.69198" lon="1.99758">
        <ele>162.98</ele>
        <time>2025-11-08T16:47:08.709Z</time>
      </trkpt>
      <trkpt lat="50.69181" lon="1.99719">
        <ele>165.1</ele>
        <time>2025-11-08T16:47:13.838Z</time>
      </trkpt>
      <trkpt lat="50.69164" lon="1.9968">
        <ele>167.06</ele>
        <time>2025-11-08T16:47:19.007Z</time>
      </trkpt>
      <trkpt lat="50.69158" lon="1.99652">
        <ele>168.9</ele>
        <time>2025-11-08T16:47:24.201Z</time>
      </trkpt>
      <trkpt lat="50.69152" lon="1.99624">
        <ele>170.72</ele>
        <time>2025-11-08T16:47:29.420Z</time>
      </trkpt>
      <trkpt lat="50.69153" lon="1.99588">
        <ele>172.63</ele>
        <time>2025-11-08T16:47:34.670Z</time>
      </trkpt>
      <trkpt lat="50.69154" lon="1.99552">
        <ele>174.48</ele>
        <time>2025-11-08T16:47:39.950Z</time>
      </trkpt>
      <trkpt lat="50.69155" lon="1.99517">
        <ele>176.32</ele>
        <time>2025-11-08T16:47:45.260Z</time>
      </trkpt>
      <trkpt lat="50.69156" lon="1.99479">
        <ele>178.16</ele>
        <time>2025-11-08T16:47:50.603Z</time>
      </trkpt>
      <trkpt lat="50.69157" lon="1.99441">
        <ele>179.88</ele>
        <time>2025-11-08T16:47:55.978Z</time>
      </trkpt>
      <trkpt lat="50.69161" lon="1.99404">
        <ele>181.49</ele>
        <time>2025-11-08T16:48:01.385Z</time>
      </trkpt>
      <trkpt lat="50.69165" lon="1.99367">
        <ele>183</ele>
        <time>2025-11-08T16:48:06.823Z</time>
      </trkpt>
      <trkpt lat="50.6916" lon="1.99331">
        <ele>184.2</ele>
        <time>2025-11-08T16:48:12.292Z</time>
      </trkpt>
      <trkpt lat="50.69156" lon="1.99295">
        <ele>185.36</ele>
        <time>2025-11-08T16:48:17.792Z</time>
      </trkpt>
      <trkpt lat="50.69151" lon="1.9926">
        <ele>186.51</ele>
        <time>2025-11-08T16:48:23.323Z</time>
      </trkpt>
      <trkpt lat="50.69147" lon="1.99218">
        <ele>187.53</ele>
        <time>2025-11-08T16:48:28.890Z</time>
      </trkpt>
      <trkpt lat="50.69143" lon="1.99176">
        <ele>188.42</ele>
        <time>2025-11-08T16:48:34.493Z</time>
      </trkpt>
      <trkpt lat="50.69139" lon="1.99135">
        <ele>189.31</ele>
        <time>2025-11-08T16:48:40.131Z</time>
      </trkpt>
      <trkpt lat="50.69132" lon="1.99089">
        <ele>189.94</ele>
        <time>2025-11-08T16:48:45.810Z</time>
      </trkpt>
      <trkpt lat="50.69126" lon="1.99042">
        <ele>190.25</ele>
        <time>2025-11-08T16:48:51.529Z</time>
      </trkpt>
      <trkpt lat="50.69119" lon="1.98996">
        <ele>190.55</ele>
        <time>2025-11-08T16:48:57.288Z</time>
      </trkpt>
      <trkpt lat="50.69111" lon="1.98954">
        <ele>191</ele>
        <time>2025-11-08T16:49:03.084Z</time>
      </trkpt>
      <trkpt lat="50.69103" lon="1.98913">
        <ele>191.48</ele>
        <time>2025-11-08T16:49:08.917Z</time>
      </trkpt>
      <trkpt lat="50.69096" lon="1.98869">
        <ele>191.98</ele>
        <time>2025-11-08T16:49:14.788Z</time>
      </trkpt>
      <trkpt lat="50.69089" lon="1.98826">
        <ele>192.59</ele>
        <time>2025-11-08T16:49:20.697Z</time>
      </trkpt>
      <trkpt lat="50.69086" lon="1.98786">
        <ele>193.12</ele>
        <time>2025-11-08T16:49:26.640Z</time>
      </trkpt>
      <trkpt lat="50.69082" lon="1.98746">
        <ele>193.61</ele>
        <time>2025-11-08T16:49:32.617Z</time>
      </trkpt>
      <trkpt lat="50.69079" lon="1.98707">
        <ele>194.2</ele>
        <time>2025-11-08T16:49:38.627Z</time>
      </trkpt>
      <trkpt lat="50.69076" lon="1.98691">
        <ele>194.66</ele>
        <time>2025-11-08T16:49:44.652Z</time>
      </trkpt>
      <trkpt lat="50.69079" lon="1.98652">
        <ele>195.19</ele>
        <time>2025-11-08T16:49:50.710Z</time>
      </trkpt>
      <trkpt lat="50.69082" lon="1.98613">
        <ele>195.73</ele>
        <time>2025-11-08T16:49:56.801Z</time>
      </trkpt>
      <trkpt lat="50.69085" lon="1.98575">
        <ele>196.27</ele>
        <time>2025-11-08T16:50:02.925Z</time>
      </trkpt>
      <trkpt lat="50.69088" lon="1.98528">
        <ele>196.7</ele>
        <time>2025-11-08T16:50:09.089Z</time>
      </trkpt>
      <trkpt lat="50.69091" lon="1.98481">
        <ele>197.08</ele>
        <time>2025-11-08T16:50:15.293Z</time>
      </trkpt>
      <trkpt lat="50.69093" lon="1.98441">
        <ele>197.42</ele>
        <time>2025-11-08T16:50:21.531Z</time>
      </trkpt>
      <trkpt lat="50.69095" lon="1.98401">
        <ele>197.8</ele>
        <time>2025-11-08T16:50:27.803Z</time>
      </trkpt>
      <trkpt lat="50.69098" lon="1.9837">
        <ele>198.26</ele>
        <time>2025-11-08T16:50:34.101Z</time>
      </trkpt>
      <trkpt lat="50.691" lon="1.98339">
        <ele>198.7</ele>
        <time>2025-11-08T16:50:40.426Z</time>
      </trkpt>
      <trkpt lat="50.69108" lon="1.98302">
        <ele>199.16</ele>
        <time>2025-11-08T16:50:46.784Z</time>
      </trkpt>
      <trkpt lat="50.69116" lon="1.98265">
        <ele>199.45</ele>
        <time>2025-11-08T16:50:53.175Z</time>
      </trkpt>
      <trkpt lat="50.6912" lon="1.98249">
        <ele>199.72</ele>
        <time>2025-11-08T16:50:59.581Z</time>
      </trkpt>
      <trkpt lat="50.69117" lon="1.98246">
        <ele>199.97</ele>
        <time>2025-11-08T16:51:05.991Z</time>
      </trkpt>
      <trkpt lat="50.69098" lon="1.98232">
        <ele>200.15</ele>
        <time>2025-11-08T16:51:12.429Z</time>
      </trkpt>
      <trkpt lat="50.6908" lon="1.98219">
        <ele>200.42</ele>
        <time>2025-11-08T16:51:18.894Z</time>
      </trkpt>
      <trkpt lat="50.69052" lon="1.98198">
        <ele>200.8</ele>
        <time>2025-11-08T16:51:25.400Z</time>
      </trkpt>
      <trkpt lat="50.69024" lon="1.98178">
        <ele>201.1</ele>
        <time>2025-11-08T16:51:31.947Z</time>
      </trkpt>
      <trkpt lat="50.69006" lon="1.98165">
        <ele>201.2</ele>
        <time>2025-11-08T16:51:38.520Z</time>
      </trkpt>
      <trkpt lat="50.68989" lon="1.98152">
        <ele>201.32</ele>
        <time>2025-11-08T16:51:45.119Z</time>
      </trkpt>
      <trkpt lat="50.68972" lon="1.98146">
        <ele>201.44</ele>
        <time>2025-11-08T16:51:51.741Z</time>
      </trkpt>
      <trkpt lat="50.68956" lon="1.98141">
        <ele>201.58</ele>
        <time>2025-11-08T16:51:58.385Z</time>
      </trkpt>
      <trkpt lat="50.68935" lon="1.98116">
        <ele>201.77</ele>
        <time>2025-11-08T16:52:05.063Z</time>
      </trkpt>
      <trkpt lat="50.68915" lon="1.98092">
        <ele>201.98</ele>
        <time>2025-11-08T16:52:11.776Z</time>
      </trkpt>
      <trkpt lat="50.689" lon="1.98071">
        <ele>202.09</ele>
        <time>2025-11-08T16:52:18.515Z</time>
      </trkpt>
      <trkpt lat="50.68886" lon="1.9805">
        <ele>202.18</ele>
        <time>2025-11-08T16:52:25.280Z</time>
      </trkpt>
      <trkpt lat="50.68872" lon="1.98025">
        <ele>202.25</ele>
        <time>2025-11-08T16:52:32.073Z</time>
      </trkpt>
      <trkpt lat="50.68859" lon="1.98">
        <ele>202.32</ele>
        <time>2025-11-08T16:52:38.894Z</time>
      </trkpt>
      <trkpt lat="50.68844" lon="1.97965">
        <ele>202.31</ele>
        <time>2025-11-08T16:52:45.751Z</time>
      </trkpt>
      <trkpt lat="50.68829" lon="1.97931">
        <ele>202.32</ele>
        <time>2025-11-08T16:52:52.643Z</time>
      </trkpt>
      <trkpt lat="50.68816" lon="1.97899">
        <ele>202.35</ele>
        <time>2025-11-08T16:52:59.567Z</time>
      </trkpt>
      <trkpt lat="50.68804" lon="1.97867">
        <ele>202.41</ele>
        <time>2025-11-08T16:53:06.523Z</time>
      </trkpt>
      <trkpt lat="50.68789" lon="1.97831">
        <ele>202.35</ele>
        <time>2025-11-08T16:53:13.515Z</time>
      </trkpt>
      <trkpt lat="50.68774" lon="1.97796">
        <ele>202.32</ele>
        <time>2025-11-08T16:53:20.543Z</time>
      </trkpt>
      <trkpt lat="50.68759" lon="1.97759">
        <ele>202.24</ele>
        <time>2025-11-08T16:53:27.608Z</time>
      </trkpt>
      <trkpt lat="50.68748" lon="1.97748">
        <ele>202.22</ele>
        <time>2025-11-08T16:53:34.691Z</time>
      </trkpt>
      <trkpt lat="50.68734" lon="1.9775">
        <ele>202.22</ele>
        <time>2025-11-08T16:53:41.792Z</time>
      </trkpt>
      <trkpt lat="50.68735" lon="1.97772">
        <ele>202.14</ele>
        <time>2025-11-08T16:53:48.912Z</time>
      </trkpt>
      <trkpt lat="50.68737" lon="1.97788">
        <ele>202.01</ele>
        <time>2025-11-08T16:53:56.046Z</time>
      </trkpt>
      <trkpt lat="50.68734" lon="1.9782">
        <ele>201.8</ele>
        <time>2025-11-08T16:54:03.207Z</time>
      </trkpt>
      <trkpt lat="50.68731" lon="1.97851">
        <ele>201.53</ele>
        <time>2025-11-08T16:54:10.395Z</time>
      </trkpt>
      <trkpt lat="50.68727" lon="1.97889">
        <ele>201.25</ele>
        <time>2025-11-08T16:54:17.615Z</time>
      </trkpt>
      <trkpt lat="50.68724" lon="1.97926">
        <ele>200.94</ele>
        <time>2025-11-08T16:54:24.867Z</time>
      </trkpt>
      <trkpt lat="50.6872" lon="1.97967">
        <ele>200.66</ele>
        <time>2025-11-08T16:54:32.155Z</time>
      </trkpt>
      <trkpt lat="50.68715" lon="1.98008">
        <ele>200.3</ele>
        <time>2025-11-08T16:54:39.478Z</time>
      </trkpt>
      <trkpt lat="50.68711" lon="1.98049">
        <ele>199.98</ele>
        <time>2025-11-08T16:54:46.836Z</time>
      </trkpt>
      <trkpt lat="50.68706" lon="1.98088">
        <ele>199.68</ele>
        <time>2025-11-08T16:54:54.228Z</time>
      </trkpt>
      <trkpt lat="50.68702" lon="1.98127">
        <ele>199.36</ele>
        <time>2025-11-08T16:55:01.653Z</time>
      </trkpt>
      <trkpt lat="50.68697" lon="1.98166">
        <ele>199.15</ele>
        <time>2025-11-08T16:55:09.112Z</time>
      </trkpt>
      <trkpt lat="50.68693" lon="1.98202">
        <ele>198.93</ele>
        <time>2025-11-08T16:55:16.602Z</time>
      </trkpt>
      <trkpt lat="50.6869" lon="1.98238">
        <ele>198.83</ele>
        <time>2025-11-08T16:55:24.122Z</time>
      </trkpt>
      <trkpt lat="50.68686" lon="1.98273">
        <ele>198.76</ele>
        <time>2025-11-08T16:55:31.673Z</time>
      </trkpt>
      <trkpt lat="50.68679" lon="1.9832">
        <ele>198.66</ele>
        <time>2025-11-08T16:55:39.265Z</time>
      </trkpt>
      <trkpt lat="50.68672" lon="1.98367">
        <ele>198.67</ele>
        <time>2025-11-08T16:55:46.898Z</time>
      </trkpt>
      <trkpt lat="50.68665" lon="1.98412">
        <ele>198.83</ele>
        <time>2025-11-08T16:55:54.570Z</time>
      </trkpt>
      <trkpt lat="50.68658" lon="1.98457">
        <ele>199.07</ele>
        <time>2025-11-08T16:56:02.281Z</time>
      </trkpt>
      <trkpt lat="50.68652" lon="1.98496">
        <ele>199.35</ele>
        <time>2025-11-08T16:56:10.027Z</time>
      </trkpt>
      <trkpt lat="50.68646" lon="1.98536">
        <ele>199.68</ele>
        <time>2025-11-08T16:56:17.807Z</time>
      </trkpt>
      <trkpt lat="50.6864" lon="1.98575">
        <ele>200.03</ele>
        <time>2025-11-08T16:56:25.621Z</time>
      </trkpt>
      <trkpt lat="50.68634" lon="1.98614">
        <ele>200.39</ele>
        <time>2025-11-08T16:56:33.469Z</time>
      </trkpt>
      <trkpt lat="50.68616" lon="1.9862">
        <ele>200.75</ele>
        <time>2025-11-08T16:56:41.342Z</time>
      </trkpt>
      <trkpt lat="50.68598" lon="1.98627">
        <ele>201.11</ele>
        <time>2025-11-08T16:56:49.240Z</time>
      </trkpt>
      <trkpt lat="50.68576" lon="1.98635">
        <ele>201.47</ele>
        <time>2025-11-08T16:56:57.167Z</time>
      </trkpt>
      <trkpt lat="50.68555" lon="1.98643">
        <ele>201.81</ele>
        <time>2025-11-08T16:57:05.124Z</time>
      </trkpt>
      <trkpt lat="50.68533" lon="1.98651">
        <ele>202.07</ele>
        <time>2025-11-08T16:57:13.111Z</time>
      </trkpt>
      <trkpt lat="50.68508" lon="1.98655">
        <ele>202.06</ele>
        <time>2025-11-08T16:57:21.131Z</time>
      </trkpt>
      <trkpt lat="50.68483" lon="1.98659">
        <ele>201.84</ele>
        <time>2025-11-08T16:57:29.185Z</time>
      </trkpt>
      <trkpt lat="50.68476" lon="1.98627">
        <ele>201.67</ele>
        <time>2025-11-08T16:57:37.267Z</time>
      </trkpt>
      <trkpt lat="50.68469" lon="1.98596">
        <ele>201.37</ele>
        <time>2025-11-08T16:57:45.377Z</time>
      </trkpt>
      <trkpt lat="50.68463" lon="1.98565">
        <ele>200.95</ele>
        <time>2025-11-08T16:57:53.515Z</time>
      </trkpt>
      <trkpt lat="50.68457" lon="1.98534">
        <ele>200.39</ele>
        <time>2025-11-08T16:58:01.680Z</time>
      </trkpt>
      <trkpt lat="50.68449" lon="1.98508">
        <ele>199.72</ele>
        <time>2025-11-08T16:58:09.870Z</time>
      </trkpt>
      <trkpt lat="50.68437" lon="1.985">
        <ele>198.87</ele>
        <time>2025-11-08T16:58:18.077Z</time>
      </trkpt>
      <trkpt lat="50.68424" lon="1.98503">
        <ele>197.87</ele>
        <time>2025-11-08T16:58:26.302Z</time>
      </trkpt>
      <trkpt lat="50.68416" lon="1.98516">
        <ele>196.73</ele>
        <time>2025-11-08T16:58:34.542Z</time>
      </trkpt>
      <trkpt lat="50.68413" lon="1.9855">
        <ele>195.53</ele>
        <time>2025-11-08T16:58:42.811Z</time>
      </trkpt>
      <trkpt lat="50.68413" lon="1.98582">
        <ele>194.27</ele>
        <time>2025-11-08T16:58:51.107Z</time>
      </trkpt>
      <trkpt lat="50.68413" lon="1.98614">
        <ele>192.91</ele>
        <time>2025-11-08T16:58:59.430Z</time>
      </trkpt>
      <trkpt lat="50.68414" lon="1.98655">
        <ele>191.39</ele>
        <time>2025-11-08T16:59:07.788Z</time>
      </trkpt>
      <trkpt lat="50.68413" lon="1.98691">
        <ele>189.83</ele>
        <time>2025-11-08T16:59:16.177Z</time>
      </trkpt>
      <trkpt lat="50.68413" lon="1.98727">
        <ele>188.22</ele>
        <time>2025-11-08T16:59:24.596Z</time>
      </trkpt>
      <trkpt lat="50.68412" lon="1.98762">
        <ele>186.56</ele>
        <time>2025-11-08T16:59:33.045Z</time>
      </trkpt>
      <trkpt lat="50.684" lon="1.9877">
        <ele>184.76</ele>
        <time>2025-11-08T16:59:41.511Z</time>
      </trkpt>
      <trkpt lat="50.68395" lon="1.98784">
        <ele>183.09</ele>
        <time>2025-11-08T16:59:49.991Z</time>
      </trkpt>
      <trkpt lat="50.68388" lon="1.98815">
        <ele>181.36</ele>
        <time>2025-11-08T16:59:58.499Z</time>
      </trkpt>
      <trkpt lat="50.68381" lon="1.98847">
        <ele>179.74</ele>
        <time>2025-11-08T17:00:07.036Z</time>
      </trkpt>
      <trkpt lat="50.68374" lon="1.98878">
        <ele>178.1</ele>
        <time>2025-11-08T17:00:15.601Z</time>
      </trkpt>
      <trkpt lat="50.68359" lon="1.98912">
        <ele>176.34</ele>
        <time>2025-11-08T17:00:24.201Z</time>
      </trkpt>
      <trkpt lat="50.68345" lon="1.98947">
        <ele>174.48</ele>
        <time>2025-11-08T17:00:32.836Z</time>
      </trkpt>
      <trkpt lat="50.6833" lon="1.98981">
        <ele>172.7</ele>
        <time>2025-11-08T17:00:41.506Z</time>
      </trkpt>
      <trkpt lat="50.68314" lon="1.99017">
        <ele>171.03</ele>
        <time>2025-11-08T17:00:50.213Z</time>
      </trkpt>
      <trkpt lat="50.68298" lon="1.99052">
        <ele>169.43</ele>
        <time>2025-11-08T17:00:58.957Z</time>
      </trkpt>
      <trkpt lat="50.68287" lon="1.99074">
        <ele>167.93</ele>
        <time>2025-11-08T17:01:07.724Z</time>
      </trkpt>
      <trkpt lat="50.68281" lon="1.99107">
        <ele>166.49</ele>
        <time>2025-11-08T17:01:16.521Z</time>
      </trkpt>
      <trkpt lat="50.68271" lon="1.9914">
        <ele>165.11</ele>
        <time>2025-11-08T17:01:25.348Z</time>
      </trkpt>
      <trkpt lat="50.68262" lon="1.99173">
        <ele>163.95</ele>
        <time>2025-11-08T17:01:34.206Z</time>
      </trkpt>
      <trkpt lat="50.68248" lon="1.99205">
        <ele>162.93</ele>
        <time>2025-11-08T17:01:43.097Z</time>
      </trkpt>
      <trkpt lat="50.68234" lon="1.99237">
        <ele>161.93</ele>
        <time>2025-11-08T17:01:52.021Z</time>
      </trkpt>
      <trkpt lat="50.68222" lon="1.99257">
        <ele>160.99</ele>
        <time>2025-11-08T17:02:00.968Z</time>
      </trkpt>
      <trkpt lat="50.6821" lon="1.99277">
        <ele>160.06</ele>
        <time>2025-11-08T17:02:09.939Z</time>
      </trkpt>
      <trkpt lat="50.68192" lon="1.99298">
        <ele>159.17</ele>
        <time>2025-11-08T17:02:18.939Z</time>
      </trkpt>
      <trkpt lat="50.68174" lon="1.99319">
        <ele>158.32</ele>
        <time>2025-11-08T17:02:27.969Z</time>
      </trkpt>
      <trkpt lat="50.68149" lon="1.99337">
        <ele>157.33</ele>
        <time>2025-11-08T17:02:37.035Z</time>
      </trkpt>
      <trkpt lat="50.68125" lon="1.99354">
        <ele>156.18</ele>
        <time>2025-11-08T17:02:46.137Z</time>
      </trkpt>
      <trkpt lat="50.68109" lon="1.99373">
        <ele>154.93</ele>
        <time>2025-11-08T17:02:55.265Z</time>
      </trkpt>
      <trkpt lat="50.68094" lon="1.99392">
        <ele>153.54</ele>
        <time>2025-11-08T17:03:04.420Z</time>
      </trkpt>
      <trkpt lat="50.68076" lon="1.99427">
        <ele>152.17</ele>
        <time>2025-11-08T17:03:13.612Z</time>
      </trkpt>
      <trkpt lat="50.68059" lon="1.99461">
        <ele>150.79</ele>
        <time>2025-11-08T17:03:22.842Z</time>
      </trkpt>
      <trkpt lat="50.68038" lon="1.99493">
        <ele>149.32</ele>
        <time>2025-11-08T17:03:32.110Z</time>
      </trkpt>
      <trkpt lat="50.68018" lon="1.99525">
        <ele>147.82</ele>
        <time>2025-11-08T17:03:41.417Z</time>
      </trkpt>
      <trkpt lat="50.68006" lon="1.99556">
        <ele>146.18</ele>
        <time>2025-11-08T17:03:50.754Z</time>
      </trkpt>
      <trkpt lat="50.67995" lon="1.99586">
        <ele>144.45</ele>
        <time>2025-11-08T17:04:00.121Z</time>
      </trkpt>
      <trkpt lat="50.67982" lon="1.9963">
        <ele>142.65</ele>
        <time>2025-11-08T17:04:09.529Z</time>
      </trkpt>
      <trkpt lat="50.6797" lon="1.99674">
        <ele>140.79</ele>
        <time>2025-11-08T17:04:18.978Z</time>
      </trkpt>
      <trkpt lat="50.67963" lon="1.99721">
        <ele>139.08</ele>
        <time>2025-11-08T17:04:28.467Z</time>
      </trkpt>
      <trkpt lat="50.67955" lon="1.99767">
        <ele>137.67</ele>
        <time>2025-11-08T17:04:37.997Z</time>
      </trkpt>
      <trkpt lat="50.67948" lon="1.99814">
        <ele>136.34</ele>
        <time>2025-11-08T17:04:47.568Z</time>
      </trkpt>
      <trkpt lat="50.6794" lon="1.9986">
        <ele>135.08</ele>
        <time>2025-11-08T17:04:57.179Z</time>
      </trkpt>
      <trkpt lat="50.67933" lon="1.99906">
        <ele>134.02</ele>
        <time>2025-11-08T17:05:06.830Z</time>
      </trkpt>
      <trkpt lat="50.67927" lon="1.9994">
        <ele>133.05</ele>
        <time>2025-11-08T17:05:16.512Z</time>
      </trkpt>
      <trkpt lat="50.67922" lon="1.99975">
        <ele>132.15</ele>
        <time>2025-11-08T17:05:26.224Z</time>
      </trkpt>
      <trkpt lat="50.67916" lon="2.00009">
        <ele>131.48</ele>
        <time>2025-11-08T17:05:35.966Z</time>
      </trkpt>
      <trkpt lat="50.67907" lon="2.0005">
        <ele>131.01</ele>
        <time>2025-11-08T17:05:45.745Z</time>
      </trkpt>
      <trkpt lat="50.67898" lon="2.00091">
        <ele>130.53</ele>
        <time>2025-11-08T17:05:55.560Z</time>
      </trkpt>
      <trkpt lat="50.67889" lon="2.00129">
        <ele>130.19</ele>
        <time>2025-11-08T17:06:05.409Z</time>
      </trkpt>
      <trkpt lat="50.67881" lon="2.00166">
        <ele>129.86</ele>
        <time>2025-11-08T17:06:15.292Z</time>
      </trkpt>
      <trkpt lat="50.67877" lon="2.00189">
        <ele>129.61</ele>
        <time>2025-11-08T17:06:25.195Z</time>
      </trkpt>
      <trkpt lat="50.67871" lon="2.00222">
        <ele>129.47</ele>
        <time>2025-11-08T17:06:35.127Z</time>
      </trkpt>
      <trkpt lat="50.67865" lon="2.00254">
        <ele>129.34</ele>
        <time>2025-11-08T17:06:45.087Z</time>
      </trkpt>
      <trkpt lat="50.67861" lon="2.00284">
        <ele>129.25</ele>
        <time>2025-11-08T17:06:55.073Z</time>
      </trkpt>
      <trkpt lat="50.67857" lon="2.00314">
        <ele>129.11</ele>
        <time>2025-11-08T17:07:05.085Z</time>
      </trkpt>
      <trkpt lat="50.67856" lon="2.00351">
        <ele>128.98</ele>
        <time>2025-11-08T17:07:15.129Z</time>
      </trkpt>
      <trkpt lat="50.67854" lon="2.00388">
        <ele>128.84</ele>
        <time>2025-11-08T17:07:25.204Z</time>
      </trkpt>
      <trkpt lat="50.67853" lon="2.00424">
        <ele>128.7</ele>
        <time>2025-11-08T17:07:35.310Z</time>
      </trkpt>
      <trkpt lat="50.67853" lon="2.00456">
        <ele>128.52</ele>
        <time>2025-11-08T17:07:45.443Z</time>
      </trkpt>
      <trkpt lat="50.67854" lon="2.00488">
        <ele>128.18</ele>
        <time>2025-11-08T17:07:55.603Z</time>
      </trkpt>
      <trkpt lat="50.67854" lon="2.0051">
        <ele>127.8</ele>
        <time>2025-11-08T17:08:05.782Z</time>
      </trkpt>
      <trkpt lat="50.67865" lon="2.00531">
        <ele>127.29</ele>
        <time>2025-11-08T17:08:15.984Z</time>
      </trkpt>
      <trkpt lat="50.67873" lon="2.00562">
        <ele>126.63</ele>
        <time>2025-11-08T17:08:26.214Z</time>
      </trkpt>
      <trkpt lat="50.6788" lon="2.00593">
        <ele>125.92</ele>
        <time>2025-11-08T17:08:36.472Z</time>
      </trkpt>
      <trkpt lat="50.67884" lon="2.00624">
        <ele>125.13</ele>
        <time>2025-11-08T17:08:46.757Z</time>
      </trkpt>
      <trkpt lat="50.67887" lon="2.00655">
        <ele>124.35</ele>
        <time>2025-11-08T17:08:57.069Z</time>
      </trkpt>
      <trkpt lat="50.67893" lon="2.007">
        <ele>123.54</ele>
        <time>2025-11-08T17:09:07.420Z</time>
      </trkpt>
      <trkpt lat="50.67896" lon="2.00738">
        <ele>122.68</ele>
        <time>2025-11-08T17:09:17.803Z</time>
      </trkpt>
      <trkpt lat="50.67899" lon="2.00775">
        <ele>121.84</ele>
        <time>2025-11-08T17:09:28.218Z</time>
      </trkpt>
      <trkpt lat="50.679" lon="2.00815">
        <ele>121.07</ele>
        <time>2025-11-08T17:09:38.667Z</time>
      </trkpt>
      <trkpt lat="50.67902" lon="2.00855">
        <ele>120.32</ele>
        <time>2025-11-08T17:09:49.150Z</time>
      </trkpt>
      <trkpt lat="50.67903" lon="2.00895">
        <ele>119.54</ele>
        <time>2025-11-08T17:09:59.667Z</time>
      </trkpt>
      <trkpt lat="50.67905" lon="2.00933">
        <ele>118.78</ele>
        <time>2025-11-08T17:10:10.216Z</time>
      </trkpt>
      <trkpt lat="50.67904" lon="2.00972">
        <ele>118.03</ele>
        <time>2025-11-08T17:10:20.798Z</time>
      </trkpt>
      <trkpt lat="50.67903" lon="2.01011">
        <ele>117.25</ele>
        <time>2025-11-08T17:10:31.413Z</time>
      </trkpt>
      <trkpt lat="50.67902" lon="2.01049">
        <ele>116.59</ele>
        <time>2025-11-08T17:10:42.060Z</time>
      </trkpt>
      <trkpt lat="50.67901" lon="2.01083">
        <ele>115.91</ele>
        <time>2025-11-08T17:10:52.736Z</time>
      </trkpt>
      <trkpt lat="50.67901" lon="2.01117">
        <ele>115.31</ele>
        <time>2025-11-08T17:11:03.441Z</time>
      </trkpt>
      <trkpt lat="50.679" lon="2.01151">
        <ele>114.76</ele>
        <time>2025-11-08T17:11:14.175Z</time>
      </trkpt>
      <trkpt lat="50.67899" lon="2.01197">
        <ele>114.21</ele>
        <time>2025-11-08T17:11:24.948Z</time>
      </trkpt>
      <trkpt lat="50.67897" lon="2.01234">
        <ele>113.64</ele>
        <time>2025-11-08T17:11:35.752Z</time>
      </trkpt>
      <trkpt lat="50.67894" lon="2.01271">
        <ele>113.05</ele>
        <time>2025-11-08T17:11:46.588Z</time>
      </trkpt>
      <trkpt lat="50.67892" lon="2.01307">
        <ele>112.5</ele>
        <time>2025-11-08T17:11:57.455Z</time>
      </trkpt>
      <trkpt lat="50.6789" lon="2.01336">
        <ele>112</ele>
        <time>2025-11-08T17:12:08.347Z</time>
      </trkpt>
      <trkpt lat="50.67889" lon="2.01365">
        <ele>111.59</ele>
        <time>2025-11-08T17:12:19.263Z</time>
      </trkpt>
      <trkpt lat="50.67885" lon="2.01403">
        <ele>111.25</ele>
        <time>2025-11-08T17:12:30.212Z</time>
      </trkpt>
      <trkpt lat="50.67882" lon="2.01441">
        <ele>110.86</ele>
        <time>2025-11-08T17:12:41.193Z</time>
      </trkpt>
      <trkpt lat="50.67878" lon="2.01479">
        <ele>110.59</ele>
        <time>2025-11-08T17:12:52.207Z</time>
      </trkpt>
      <trkpt lat="50.67875" lon="2.01517">
        <ele>110.39</ele>
        <time>2025-11-08T17:13:03.253Z</time>
      </trkpt>
      <trkpt lat="50.67872" lon="2.01555">
        <ele>110.18</ele>
        <time>2025-11-08T17:13:14.332Z</time>
      </trkpt>
      <trkpt lat="50.67869" lon="2.01593">
        <ele>109.92</ele>
        <time>2025-11-08T17:13:25.444Z</time>
      </trkpt>
      <trkpt lat="50.67866" lon="2.01631">
        <ele>109.63</ele>
        <time>2025-11-08T17:13:36.588Z</time>
      </trkpt>
      <trkpt lat="50.67857" lon="2.01677">
        <ele>109.44</ele>
        <time>2025-11-08T17:13:47.773Z</time>
      </trkpt>
      <trkpt lat="50.67849" lon="2.01724">
        <ele>109.23</ele>
        <time>2025-11-08T17:13:58.999Z</time>
      </trkpt>
      <trkpt lat="50.67844" lon="2.01759">
        <ele>109.06</ele>
        <time>2025-11-08T17:14:10.255Z</time>
      </trkpt>
      <trkpt lat="50.67839" lon="2.01793">
        <ele>108.92</ele>
        <time>2025-11-08T17:14:21.541Z</time>
      </trkpt>
      <trkpt lat="50.67836" lon="2.01828">
        <ele>108.68</ele>
        <time>2025-11-08T17:14:32.857Z</time>
      </trkpt>
      <trkpt lat="50.67809" lon="2.01822">
        <ele>108.62</ele>
        <time>2025-11-08T17:14:44.209Z</time>
      </trkpt>
      <trkpt lat="50.67792" lon="2.01823">
        <ele>108.51</ele>
        <time>2025-11-08T17:14:55.584Z</time>
      </trkpt>
      <trkpt lat="50.67767" lon="2.01835">
        <ele>108.35</ele>
        <time>2025-11-08T17:15:06.994Z</time>
      </trkpt>
      <trkpt lat="50.67743" lon="2.01848">
        <ele>108.2</ele>
        <time>2025-11-08T17:15:18.438Z</time>
      </trkpt>
      <trkpt lat="50.67718" lon="2.0186">
        <ele>108.08</ele>
        <time>2025-11-08T17:15:29.917Z</time>
      </trkpt>
      <trkpt lat="50.67692" lon="2.01871">
        <ele>108.02</ele>
        <time>2025-11-08T17:15:41.432Z</time>
      </trkpt>
      <trkpt lat="50.67663" lon="2.0187">
        <ele>107.9</ele>
        <time>2025-11-08T17:15:52.985Z</time>
      </trkpt>
      <trkpt lat="50.67635" lon="2.0187">
        <ele>107.76</ele>
        <time>2025-11-08T17:16:04.576Z</time>
      </trkpt>
      <trkpt lat="50.67613" lon="2.01879">
        <ele>107.58</ele>
        <time>2025-11-08T17:16:16.197Z</time>
      </trkpt>
      <trkpt lat="50.67597" lon="2.01892">
        <ele>107.42</ele>
        <time>2025-11-08T17:16:27.842Z</time>
      </trkpt>
      <trkpt lat="50.67582" lon="2.01905">
        <ele>107.33</ele>
        <time>2025-11-08T17:16:39.510Z</time>
      </trkpt>
      <trkpt lat="50.67561" lon="2.01925">
        <ele>107.32</ele>
        <time>2025-11-08T17:16:51.210Z</time>
      </trkpt>
      <trkpt lat="50.67541" lon="2.01945">
        <ele>107.43</ele>
        <time>2025-11-08T17:17:02.943Z</time>
      </trkpt>
      <trkpt lat="50.6752" lon="2.01965">
        <ele>107.66</ele>
        <time>2025-11-08T17:17:14.708Z</time>
      </trkpt>
      <trkpt lat="50.67499" lon="2.01987">
        <ele>108.11</ele>
        <time>2025-11-08T17:17:26.506Z</time>
      </trkpt>
      <trkpt lat="50.67479" lon="2.02008">
        <ele>108.69</ele>
        <time>2025-11-08T17:17:38.337Z</time>
      </trkpt>
      <trkpt lat="50.67467" lon="2.02034">
        <ele>109.43</ele>
        <time>2025-11-08T17:17:50.195Z</time>
      </trkpt>
      <trkpt lat="50.67453" lon="2.0205">
        <ele>110.3</ele>
        <time>2025-11-08T17:18:02.076Z</time>
      </trkpt>
      <trkpt lat="50.67439" lon="2.02066">
        <ele>111.23</ele>
        <time>2025-11-08T17:18:13.980Z</time>
      </trkpt>
      <trkpt lat="50.67424" lon="2.02088">
        <ele>112.25</ele>
        <time>2025-11-08T17:18:25.911Z</time>
      </trkpt>
      <trkpt lat="50.67409" lon="2.02109">
        <ele>113.34</ele>
        <time>2025-11-08T17:18:37.870Z</time>
      </trkpt>
      <trkpt lat="50.67395" lon="2.02137">
        <ele>114.38</ele>
        <time>2025-11-08T17:18:49.859Z</time>
      </trkpt>
      <trkpt lat="50.67394" lon="2.02172">
        <ele>115.33</ele>
        <time>2025-11-08T17:19:01.877Z</time>
      </trkpt>
      <trkpt lat="50.67383" lon="2.02158">
        <ele>116.27</ele>
        <time>2025-11-08T17:19:13.914Z</time>
      </trkpt>
      <trkpt lat="50.67371" lon="2.02133">
        <ele>117.22</ele>
        <time>2025-11-08T17:19:25.978Z</time>
      </trkpt>
      <trkpt lat="50.67359" lon="2.02108">
        <ele>118.06</ele>
        <time>2025-11-08T17:19:38.069Z</time>
      </trkpt>
      <trkpt lat="50.67349" lon="2.02084">
        <ele>118.82</ele>
        <time>2025-11-08T17:19:50.184Z</time>
      </trkpt>
      <trkpt lat="50.67338" lon="2.02052">
        <ele>119.4</ele>
        <time>2025-11-08T17:20:02.329Z</time>
      </trkpt>
      <trkpt lat="50.67327" lon="2.02021">
        <ele>119.79</ele>
        <time>2025-11-08T17:20:14.505Z</time>
      </trkpt>
      <trkpt lat="50.67313" lon="2.01983">
        <ele>120.08</ele>
        <time>2025-11-08T17:20:26.718Z</time>
      </trkpt>
      <trkpt lat="50.673" lon="2.01957">
        <ele>120.08</ele>
        <time>2025-11-08T17:20:38.959Z</time>
      </trkpt>
      <trkpt lat="50.67283" lon="2.01937">
        <ele>119.94</ele>
        <time>2025-11-08T17:20:51.228Z</time>
      </trkpt>
      <trkpt lat="50.67256" lon="2.01956">
        <ele>119.75</ele>
        <time>2025-11-08T17:21:03.537Z</time>
      </trkpt>
      <trkpt lat="50.67229" lon="2.01975">
        <ele>119.13</ele>
        <time>2025-11-08T17:21:15.885Z</time>
      </trkpt>
      <trkpt lat="50.67219" lon="2.01983">
        <ele>118.26</ele>
        <time>2025-11-08T17:21:28.248Z</time>
      </trkpt>
      <trkpt lat="50.67203" lon="2.01992">
        <ele>117.12</ele>
        <time>2025-11-08T17:21:40.634Z</time>
      </trkpt>
      <trkpt lat="50.67187" lon="2.02001">
        <ele>115.74</ele>
        <time>2025-11-08T17:21:53.043Z</time>
      </trkpt>
      <trkpt lat="50.6718" lon="2.02006">
        <ele>114.29</ele>
        <time>2025-11-08T17:22:05.462Z</time>
      </trkpt>
      <trkpt lat="50.67155" lon="2.02029">
        <ele>112.49</ele>
        <time>2025-11-08T17:22:17.920Z</time>
      </trkpt>
      <trkpt lat="50.6713" lon="2.02052">
        <ele>110.64</ele>
        <time>2025-11-08T17:22:30.416Z</time>
      </trkpt>
      <trkpt lat="50.67107" lon="2.02083">
        <ele>108.65</ele>
        <time>2025-11-08T17:22:42.953Z</time>
      </trkpt>
      <trkpt lat="50.67084" lon="2.02113">
        <ele>106.7</ele>
        <time>2025-11-08T17:22:55.530Z</time>
      </trkpt>
      <trkpt lat="50.67073" lon="2.02135">
        <ele>104.85</ele>
        <time>2025-11-08T17:23:08.130Z</time>
      </trkpt>
      <trkpt lat="50.67062" lon="2.02157">
        <ele>103.05</ele>
        <time>2025-11-08T17:23:20.754Z</time>
      </trkpt>
      <trkpt lat="50.67053" lon="2.02191">
        <ele>101.23</ele>
        <time>2025-11-08T17:23:33.409Z</time>
      </trkpt>
      <trkpt lat="50.67044" lon="2.02224">
        <ele>99.51</ele>
        <time>2025-11-08T17:23:46.095Z</time>
      </trkpt>
      <trkpt lat="50.6703" lon="2.02255">
        <ele>97.84</ele>
        <time>2025-11-08T17:23:58.813Z</time>
      </trkpt>
      <trkpt lat="50.67017" lon="2.02285">
        <ele>96.33</ele>
        <time>2025-11-08T17:24:11.563Z</time>
      </trkpt>
      <trkpt lat="50.67003" lon="2.02316">
        <ele>94.83</ele>
        <time>2025-11-08T17:24:24.344Z</time>
      </trkpt>
      <trkpt lat="50.66992" lon="2.02337">
        <ele>93.5</ele>
        <time>2025-11-08T17:24:37.148Z</time>
      </trkpt>
      <trkpt lat="50.66982" lon="2.02358">
        <ele>92.2</ele>
        <time>2025-11-08T17:24:49.975Z</time>
      </trkpt>
      <trkpt lat="50.67001" lon="2.02395">
        <ele>90.99</ele>
        <time>2025-11-08T17:25:02.842Z</time>
      </trkpt>
      <trkpt lat="50.67023" lon="2.02424">
        <ele>89.91</ele>
        <time>2025-11-08T17:25:15.747Z</time>
      </trkpt>
      <trkpt lat="50.67039" lon="2.02443">
        <ele>88.97</ele>
        <time>2025-11-08T17:25:28.678Z</time>
      </trkpt>
      <trkpt lat="50.67054" lon="2.02461">
        <ele>88.16</ele>
        <time>2025-11-08T17:25:41.635Z</time>
      </trkpt>
      <trkpt lat="50.67069" lon="2.02477">
        <ele>87.46</ele>
        <time>2025-11-08T17:25:54.616Z</time>
      </trkpt>
      <trkpt lat="50.67083" lon="2.02492">
        <ele>86.88</ele>
        <time>2025-11-08T17:26:07.620Z</time>
      </trkpt>
      <trkpt lat="50.6711" lon="2.02519">
        <ele>86.42</ele>
        <time>2025-11-08T17:26:20.666Z</time>
      </trkpt>
      <trkpt lat="50.67136" lon="2.02545">
        <ele>86.04</ele>
        <time>2025-11-08T17:26:33.754Z</time>
      </trkpt>
      <trkpt lat="50.67157" lon="2.0257">
        <ele>85.9</ele>
        <time>2025-11-08T17:26:46.877Z</time>
      </trkpt>
      <trkpt lat="50.67177" lon="2.026">
        <ele>85.81</ele>
        <time>2025-11-08T17:27:00.037Z</time>
      </trkpt>
      <trkpt lat="50.67174" lon="2.02606">
        <ele>85.75</ele>
        <time>2025-11-08T17:27:13.203Z</time>
      </trkpt>
      <trkpt lat="50.67155" lon="2.02608">
        <ele>85.69</ele>
        <time>2025-11-08T17:27:26.395Z</time>
      </trkpt>
      <trkpt lat="50.67153" lon="2.02614">
        <ele>85.8</ele>
        <time>2025-11-08T17:27:39.592Z</time>
      </trkpt>
      <trkpt lat="50.67153" lon="2.0264">
        <ele>86.01</ele>
        <time>2025-11-08T17:27:52.812Z</time>
      </trkpt>
      <trkpt lat="50.67153" lon="2.02646">
        <ele>86.28</ele>
        <time>2025-11-08T17:28:06.037Z</time>
      </trkpt>
      <trkpt lat="50.67146" lon="2.02656">
        <ele>86.58</ele>
        <time>2025-11-08T17:28:19.274Z</time>
      </trkpt>
      <trkpt lat="50.67128" lon="2.02634">
        <ele>86.98</ele>
        <time>2025-11-08T17:28:32.542Z</time>
      </trkpt>
      <trkpt lat="50.67118" lon="2.0264">
        <ele>87.48</ele>
        <time>2025-11-08T17:28:45.824Z</time>
      </trkpt>
      <trkpt lat="50.67106" lon="2.02656">
        <ele>88.07</ele>
        <time>2025-11-08T17:28:59.127Z</time>
      </trkpt>
      <trkpt lat="50.67101" lon="2.02669">
        <ele>88.67</ele>
        <time>2025-11-08T17:29:12.443Z</time>
      </trkpt>
      <trkpt lat="50.67083" lon="2.02704">
        <ele>89.4</ele>
        <time>2025-11-08T17:29:25.796Z</time>
      </trkpt>
      <trkpt lat="50.67066" lon="2.02738">
        <ele>90</ele>
        <time>2025-11-08T17:29:39.187Z</time>
      </trkpt>
      <trkpt lat="50.67062" lon="2.02742">
        <ele>90.61</ele>
        <time>2025-11-08T17:29:52.584Z</time>
      </trkpt>
      <trkpt lat="50.67053" lon="2.02756">
        <ele>91.25</ele>
        <time>2025-11-08T17:30:05.998Z</time>
      </trkpt>
      <trkpt lat="50.67058" lon="2.02772">
        <ele>91.86</ele>
        <time>2025-11-08T17:30:19.427Z</time>
      </trkpt>
      <trkpt lat="50.67071" lon="2.028">
        <ele>92.5</ele>
        <time>2025-11-08T17:30:32.885Z</time>
      </trkpt>
      <trkpt lat="50.67083" lon="2.02827">
        <ele>93.11</ele>
        <time>2025-11-08T17:30:46.371Z</time>
      </trkpt>
      <trkpt lat="50.67098" lon="2.02855">
        <ele>93.7</ele>
        <time>2025-11-08T17:30:59.888Z</time>
      </trkpt>
      <trkpt lat="50.67113" lon="2.02882">
        <ele>94.29</ele>
        <time>2025-11-08T17:31:13.436Z</time>
      </trkpt>
      <trkpt lat="50.6712" lon="2.02894">
        <ele>94.76</ele>
        <time>2025-11-08T17:31:26.998Z</time>
      </trkpt>
      <trkpt lat="50.67125" lon="2.02895">
        <ele>95.15</ele>
        <time>2025-11-08T17:31:40.566Z</time>
      </trkpt>
      <trkpt lat="50.67128" lon="2.02909">
        <ele>95.51</ele>
        <time>2025-11-08T17:31:54.147Z</time>
      </trkpt>
      <trkpt lat="50.67132" lon="2.02924">
        <ele>95.79</ele>
        <time>2025-11-08T17:32:07.742Z</time>
      </trkpt>
      <trkpt lat="50.67143" lon="2.02945">
        <ele>96</ele>
        <time>2025-11-08T17:32:21.360Z</time>
      </trkpt>
      <trkpt lat="50.6716" lon="2.02979">
        <ele>96.13</ele>
        <time>2025-11-08T17:32:35.015Z</time>
      </trkpt>
      <trkpt lat="50.67175" lon="2.03011">
        <ele>96.16</ele>
        <time>2025-11-08T17:32:48.703Z</time>
      </trkpt>
      <trkpt lat="50.67189" lon="2.03043">
        <ele>96.18</ele>
        <time>2025-11-08T17:33:02.424Z</time>
      </trkpt>
      <trkpt lat="50.67202" lon="2.0307">
        <ele>96.14</ele>
        <time>2025-11-08T17:33:16.174Z</time>
      </trkpt>
      <trkpt lat="50.67215" lon="2.03097">
        <ele>96.03</ele>
        <time>2025-11-08T17:33:29.953Z</time>
      </trkpt>
      <trkpt lat="50.67228" lon="2.03124">
        <ele>95.79</ele>
        <time>2025-11-08T17:33:43.760Z</time>
      </trkpt>
      <trkpt lat="50.6724" lon="2.0315">
        <ele>95.39</ele>
        <time>2025-11-08T17:33:57.595Z</time>
      </trkpt>
      <trkpt lat="50.67252" lon="2.03176">
        <ele>94.91</ele>
        <time>2025-11-08T17:34:11.457Z</time>
      </trkpt>
      <trkpt lat="50.6726" lon="2.03208">
        <ele>94.39</ele>
        <time>2025-11-08T17:34:25.348Z</time>
      </trkpt>
      <trkpt lat="50.67266" lon="2.03239">
        <ele>93.79</ele>
        <time>2025-11-08T17:34:39.267Z</time>
      </trkpt>
      <trkpt lat="50.67268" lon="2.03251">
        <ele>93.15</ele>
        <time>2025-11-08T17:34:53.196Z</time>
      </trkpt>
      <trkpt lat="50.67271" lon="2.03256">
        <ele>92.44</ele>
        <time>2025-11-08T17:35:07.131Z</time>
      </trkpt>
      <trkpt lat="50.67276" lon="2.03249">
        <ele>91.68</ele>
        <time>2025-11-08T17:35:21.075Z</time>
      </trkpt>
      <trkpt lat="50.67281" lon="2.03241">
        <ele>90.87</ele>
        <time>2025-11-08T17:35:35.028Z</time>
      </trkpt>
      <trkpt lat="50.67296" lon="2.03224">
        <ele>90.01</ele>
        <time>2025-11-08T17:35:49.006Z</time>
      </trkpt>
      <trkpt lat="50.6731" lon="2.03207">
        <ele>88.99</ele>
        <time>2025-11-08T17:36:03.008Z</time>
      </trkpt>
      <trkpt lat="50.67328" lon="2.03188">
        <ele>87.98</ele>
        <time>2025-11-08T17:36:17.039Z</time>
      </trkpt>
      <trkpt lat="50.67346" lon="2.03169">
        <ele>87.01</ele>
        <time>2025-11-08T17:36:31.099Z</time>
      </trkpt>
      <trkpt lat="50.6736" lon="2.03158">
        <ele>86.18</ele>
        <time>2025-11-08T17:36:45.179Z</time>
      </trkpt>
      <trkpt lat="50.67371" lon="2.0314">
        <ele>85.43</ele>
        <time>2025-11-08T17:36:59.281Z</time>
      </trkpt>
      <trkpt lat="50.67373" lon="2.03148">
        <ele>84.81</ele>
        <time>2025-11-08T17:37:13.390Z</time>
      </trkpt>
      <trkpt lat="50.67373" lon="2.03158">
        <ele>84.25</ele>
        <time>2025-11-08T17:37:27.507Z</time>
      </trkpt>
      <trkpt lat="50.67383" lon="2.0318">
        <ele>83.75</ele>
        <time>2025-11-08T17:37:41.647Z</time>
      </trkpt>
      <trkpt lat="50.67392" lon="2.03202">
        <ele>83.34</ele>
        <time>2025-11-08T17:37:55.810Z</time>
      </trkpt>
      <trkpt lat="50.67408" lon="2.03232">
        <ele>83.1</ele>
        <time>2025-11-08T17:38:10.006Z</time>
      </trkpt>
      <trkpt lat="50.67421" lon="2.03263">
        <ele>82.99</ele>
        <time>2025-11-08T17:38:24.233Z</time>
      </trkpt>
      <trkpt lat="50.67427" lon="2.03254">
        <ele>82.88</ele>
        <time>2025-11-08T17:38:38.471Z</time>
      </trkpt>
      <trkpt lat="50.67435" lon="2.03246">
        <ele>82.87</ele>
        <time>2025-11-08T17:38:52.722Z</time>
      </trkpt>
      <trkpt lat="50.67433" lon="2.03233">
        <ele>82.96</ele>
        <time>2025-11-08T17:39:06.984Z</time>
      </trkpt>
      <trkpt lat="50.67432" lon="2.0322">
        <ele>83.13</ele>
        <time>2025-11-08T17:39:21.257Z</time>
      </trkpt>
      <trkpt lat="50.67436" lon="2.03183">
        <ele>83.42</ele>
        <time>2025-11-08T17:39:35.562Z</time>
      </trkpt>
      <trkpt lat="50.67442" lon="2.03146">
        <ele>83.83</ele>
        <time>2025-11-08T17:39:49.900Z</time>
      </trkpt>
      <trkpt lat="50.67455" lon="2.03161">
        <ele>84.12</ele>
        <time>2025-11-08T17:40:04.259Z</time>
      </trkpt>
      <trkpt lat="50.67471" lon="2.03168">
        <ele>84.47</ele>
        <time>2025-11-08T17:40:18.640Z</time>
      </trkpt>
      <trkpt lat="50.67495" lon="2.0317">
        <ele>84.83</ele>
        <time>2025-11-08T17:40:33.053Z</time>
      </trkpt>
      <trkpt lat="50.67517" lon="2.03159">
        <ele>85.26</ele>
        <time>2025-11-08T17:40:47.498Z</time>
      </trkpt>
      <trkpt lat="50.67535" lon="2.0315">
        <ele>85.6</ele>
        <time>2025-11-08T17:41:01.968Z</time>
      </trkpt>
      <trkpt lat="50.67562" lon="2.03138">
        <ele>85.78</ele>
        <time>2025-11-08T17:41:16.475Z</time>
      </trkpt>
      <trkpt lat="50.67568" lon="2.03148">
        <ele>85.87</ele>
        <time>2025-11-08T17:41:30.994Z</time>
      </trkpt>
      <trkpt lat="50.67573" lon="2.03163">
        <ele>85.89</ele>
        <time>2025-11-08T17:41:45.527Z</time>
      </trkpt>
      <trkpt lat="50.67573" lon="2.03173">
        <ele>85.88</ele>
        <time>2025-11-08T17:42:00.069Z</time>
      </trkpt>
      <trkpt lat="50.67574" lon="2.03209">
        <ele>85.78</ele>
        <time>2025-11-08T17:42:14.641Z</time>
      </trkpt>
      <trkpt lat="50.67576" lon="2.03246">
        <ele>85.65</ele>
        <time>2025-11-08T17:42:29.244Z</time>
      </trkpt>
      <trkpt lat="50.67577" lon="2.03281">
        <ele>85.58</ele>
        <time>2025-11-08T17:42:43.878Z</time>
      </trkpt>
      <trkpt lat="50.6758" lon="2.03308">
        <ele>85.54</ele>
        <time>2025-11-08T17:42:58.535Z</time>
      </trkpt>
      <trkpt lat="50.67583" lon="2.03335">
        <ele>85.6</ele>
        <time>2025-11-08T17:43:13.215Z</time>
      </trkpt>
      <trkpt lat="50.6759" lon="2.03365">
        <ele>85.72</ele>
        <time>2025-11-08T17:43:27.922Z</time>
      </trkpt>
      <trkpt lat="50.67603" lon="2.03382">
        <ele>85.98</ele>
        <time>2025-11-08T17:43:42.651Z</time>
      </trkpt>
      <trkpt lat="50.67611" lon="2.03382">
        <ele>86.37</ele>
        <time>2025-11-08T17:43:57.392Z</time>
      </trkpt>
      <trkpt lat="50.67633" lon="2.03372">
        <ele>86.95</ele>
        <time>2025-11-08T17:44:12.163Z</time>
      </trkpt>
      <trkpt lat="50.67643" lon="2.03365">
        <ele>87.6</ele>
        <time>2025-11-08T17:44:26.949Z</time>
      </trkpt>
      <trkpt lat="50.67654" lon="2.03365">
        <ele>88.46</ele>
        <time>2025-11-08T17:44:41.750Z</time>
      </trkpt>
      <trkpt lat="50.67661" lon="2.03372">
        <ele>89.38</ele>
        <time>2025-11-08T17:44:56.561Z</time>
      </trkpt>
      <trkpt lat="50.67661" lon="2.03372">
        <ele>90.34</ele>
        <time>2025-11-08T17:45:11.372Z</time>
      </trkpt>
      <trkpt lat="50.67667" lon="2.0338">
        <ele>91.51</ele>
        <time>2025-11-08T17:45:26.194Z</time>
      </trkpt>
      <trkpt lat="50.67671" lon="2.03412">
        <ele>92.85</ele>
        <time>2025-11-08T17:45:41.044Z</time>
      </trkpt>
      <trkpt lat="50.67675" lon="2.03454">
        <ele>94.48</ele>
        <time>2025-11-08T17:45:55.930Z</time>
      </trkpt>
      <trkpt lat="50.67679" lon="2.03496">
        <ele>96.12</ele>
        <time>2025-11-08T17:46:10.852Z</time>
      </trkpt>
      <trkpt lat="50.67683" lon="2.03538">
        <ele>97.47</ele>
        <time>2025-11-08T17:46:25.810Z</time>
      </trkpt>
      <trkpt lat="50.67686" lon="2.0358">
        <ele>98.95</ele>
        <time>2025-11-08T17:46:40.803Z</time>
      </trkpt>
      <trkpt lat="50.67702" lon="2.03622">
        <ele>100.7</ele>
        <time>2025-11-08T17:46:55.838Z</time>
      </trkpt>
      <trkpt lat="50.67719" lon="2.03663">
        <ele>102.21</ele>
        <time>2025-11-08T17:47:10.914Z</time>
      </trkpt>
      <trkpt lat="50.67731" lon="2.03685">
        <ele>103.83</ele>
        <time>2025-11-08T17:47:26.015Z</time>
      </trkpt>
      <trkpt lat="50.67746" lon="2.03696">
        <ele>105.61</ele>
        <time>2025-11-08T17:47:41.138Z</time>
      </trkpt>
      <trkpt lat="50.67761" lon="2.03706">
        <ele>107.39</ele>
        <time>2025-11-08T17:47:56.283Z</time>
      </trkpt>
      <trkpt lat="50.67779" lon="2.03708">
        <ele>109.26</ele>
        <time>2025-11-08T17:48:11.451Z</time>
      </trkpt>
      <trkpt lat="50.67801" lon="2.03701">
        <ele>111.17</ele>
        <time>2025-11-08T17:48:26.650Z</time>
      </trkpt>
      <trkpt lat="50.67824" lon="2.03693">
        <ele>113.16</ele>
        <time>2025-11-08T17:48:41.880Z</time>
      </trkpt>
      <trkpt lat="50.67824" lon="2.03693">
        <ele>115.02</ele>
        <time>2025-11-08T17:48:57.110Z</time>
      </trkpt>
      <trkpt lat="50.67839" lon="2.03689">
        <ele>117.03</ele>
        <time>2025-11-08T17:49:12.360Z</time>
      </trkpt>
      <trkpt lat="50.67856" lon="2.03685">
        <ele>119.09</ele>
        <time>2025-11-08T17:49:27.633Z</time>
      </trkpt>
      <trkpt lat="50.67867" lon="2.03685">
        <ele>121.05</ele>
        <time>2025-11-08T17:49:42.921Z</time>
      </trkpt>
      <trkpt lat="50.67857" lon="2.03641">
        <ele>123.22</ele>
        <time>2025-11-08T17:49:58.248Z</time>
      </trkpt>
      <trkpt lat="50.67847" lon="2.03597">
        <ele>125.38</ele>
        <time>2025-11-08T17:50:13.615Z</time>
      </trkpt>
      <trkpt lat="50.67849" lon="2.03588">
        <ele>127.25</ele>
        <time>2025-11-08T17:50:28.989Z</time>
      </trkpt>
      <trkpt lat="50.67849" lon="2.03547">
        <ele>129.29</ele>
        <time>2025-11-08T17:50:44.398Z</time>
      </trkpt>
      <trkpt lat="50.67849" lon="2.03506">
        <ele>131.15</ele>
        <time>2025-11-08T17:50:59.842Z</time>
      </trkpt>
      <trkpt lat="50.67849" lon="2.03466">
        <ele>132.88</ele>
        <time>2025-11-08T17:51:15.320Z</time>
      </trkpt>
      <trkpt lat="50.67849" lon="2.03425">
        <ele>134.3</ele>
        <time>2025-11-08T17:51:30.833Z</time>
      </trkpt>
      <trkpt lat="50.67855" lon="2.03387">
        <ele>135.54</ele>
        <time>2025-11-08T17:51:46.379Z</time>
      </trkpt>
      <trkpt lat="50.67861" lon="2.03349">
        <ele>136.66</ele>
        <time>2025-11-08T17:52:01.958Z</time>
      </trkpt>
      <trkpt lat="50.67867" lon="2.03311">
        <ele>137.7</ele>
        <time>2025-11-08T17:52:17.570Z</time>
      </trkpt>
      <trkpt lat="50.67877" lon="2.03266">
        <ele>138.67</ele>
        <time>2025-11-08T17:52:33.223Z</time>
      </trkpt>
      <trkpt lat="50.67887" lon="2.03221">
        <ele>139.51</ele>
        <time>2025-11-08T17:52:48.916Z</time>
      </trkpt>
      <trkpt lat="50.67898" lon="2.03176">
        <ele>140.04</ele>
        <time>2025-11-08T17:53:04.650Z</time>
      </trkpt>
      <trkpt lat="50.67908" lon="2.03131">
        <ele>140.49</ele>
        <time>2025-11-08T17:53:20.425Z</time>
      </trkpt>
      <trkpt lat="50.67919" lon="2.03086">
        <ele>140.85</ele>
        <time>2025-11-08T17:53:36.241Z</time>
      </trkpt>
      <trkpt lat="50.67929" lon="2.03041">
        <ele>141.38</ele>
        <time>2025-11-08T17:53:52.097Z</time>
      </trkpt>
      <trkpt lat="50.6794" lon="2.03">
        <ele>142.03</ele>
        <time>2025-11-08T17:54:07.991Z</time>
      </trkpt>
      <trkpt lat="50.67951" lon="2.02958">
        <ele>142.62</ele>
        <time>2025-11-08T17:54:23.923Z</time>
      </trkpt>
      <trkpt lat="50.67962" lon="2.02917">
        <ele>143.1</ele>
        <time>2025-11-08T17:54:39.893Z</time>
      </trkpt>
      <trkpt lat="50.67973" lon="2.02876">
        <ele>143.5</ele>
        <time>2025-11-08T17:54:55.901Z</time>
      </trkpt>
      <trkpt lat="50.67984" lon="2.02834">
        <ele>143.99</ele>
        <time>2025-11-08T17:55:11.947Z</time>
      </trkpt>
      <trkpt lat="50.67995" lon="2.02793">
        <ele>144.44</ele>
        <time>2025-11-08T17:55:28.031Z</time>
      </trkpt>
      <trkpt lat="50.68006" lon="2.02752">
        <ele>144.72</ele>
        <time>2025-11-08T17:55:44.153Z</time>
      </trkpt>
      <trkpt lat="50.68017" lon="2.0271">
        <ele>145.1</ele>
        <time>2025-11-08T17:56:00.313Z</time>
      </trkpt>
      <trkpt lat="50.68027" lon="2.0267">
        <ele>145.29</ele>
        <time>2025-11-08T17:56:16.510Z</time>
      </trkpt>
      <trkpt lat="50.68033" lon="2.02633">
        <ele>145.31</ele>
        <time>2025-11-08T17:56:32.739Z</time>
      </trkpt>
      <trkpt lat="50.68039" lon="2.02597">
        <ele>145.53</ele>
        <time>2025-11-08T17:56:49.000Z</time>
      </trkpt>
      <trkpt lat="50.68045" lon="2.0256">
        <ele>145.59</ele>
        <time>2025-11-08T17:57:05.293Z</time>
      </trkpt>
      <trkpt lat="50.68049" lon="2.02523">
        <ele>145.6</ele>
        <time>2025-11-08T17:57:21.618Z</time>
      </trkpt>
      <trkpt lat="50.68053" lon="2.02485">
        <ele>145.71</ele>
        <time>2025-11-08T17:57:37.976Z</time>
      </trkpt>
      <trkpt lat="50.68058" lon="2.02447">
        <ele>145.88</ele>
        <time>2025-11-08T17:57:54.366Z</time>
      </trkpt>
      <trkpt lat="50.68062" lon="2.0241">
        <ele>146.05</ele>
        <time>2025-11-08T17:58:10.788Z</time>
      </trkpt>
      <trkpt lat="50.68061" lon="2.02366">
        <ele>146.1</ele>
        <time>2025-11-08T17:58:27.247Z</time>
      </trkpt>
      <trkpt lat="50.68061" lon="2.02322">
        <ele>146.1</ele>
        <time>2025-11-08T17:58:43.744Z</time>
      </trkpt>
      <trkpt lat="50.68061" lon="2.02279">
        <ele>145.93</ele>
        <time>2025-11-08T17:59:00.278Z</time>
      </trkpt>
      <trkpt lat="50.6806" lon="2.02235">
        <ele>145.65</ele>
        <time>2025-11-08T17:59:16.849Z</time>
      </trkpt>
      <trkpt lat="50.6806" lon="2.02191">
        <ele>145.47</ele>
        <time>2025-11-08T17:59:33.457Z</time>
      </trkpt>
      <trkpt lat="50.68058" lon="2.0215">
        <ele>145.4</ele>
        <time>2025-11-08T17:59:50.100Z</time>
      </trkpt>
      <trkpt lat="50.68056" lon="2.0211">
        <ele>145.26</ele>
        <time>2025-11-08T18:00:06.777Z</time>
      </trkpt>
      <trkpt lat="50.68055" lon="2.02069">
        <ele>145.29</ele>
        <time>2025-11-08T18:00:23.489Z</time>
      </trkpt>
      <trkpt lat="50.68053" lon="2.02028">
        <ele>145.31</ele>
        <time>2025-11-08T18:00:40.236Z</time>
      </trkpt>
      <trkpt lat="50.68051" lon="2.01988">
        <ele>145.43</ele>
        <time>2025-11-08T18:00:57.017Z</time>
      </trkpt>
      <trkpt lat="50.68051" lon="2.01961">
        <ele>145.56</ele>
        <time>2025-11-08T18:01:13.821Z</time>
      </trkpt>
      <trkpt lat="50.68052" lon="2.01934">
        <ele>145.84</ele>
        <time>2025-11-08T18:01:30.648Z</time>
      </trkpt>
      <trkpt lat="50.68052" lon="2.01894">
        <ele>146.29</ele>
        <time>2025-11-08T18:01:47.508Z</time>
      </trkpt>
      <trkpt lat="50.68053" lon="2.01855">
        <ele>146.9</ele>
        <time>2025-11-08T18:02:04.401Z</time>
      </trkpt>
      <trkpt lat="50.68053" lon="2.01816">
        <ele>147.43</ele>
        <time>2025-11-08T18:02:21.328Z</time>
      </trkpt>
      <trkpt lat="50.68058" lon="2.01769">
        <ele>147.88</ele>
        <time>2025-11-08T18:02:38.295Z</time>
      </trkpt>
      <trkpt lat="50.68063" lon="2.01722">
        <ele>148.54</ele>
        <time>2025-11-08T18:02:55.302Z</time>
      </trkpt>
      <trkpt lat="50.68067" lon="2.01675">
        <ele>149.37</ele>
        <time>2025-11-08T18:03:12.350Z</time>
      </trkpt>
      <trkpt lat="50.68072" lon="2.01628">
        <ele>150.22</ele>
        <time>2025-11-08T18:03:29.438Z</time>
      </trkpt>
      <trkpt lat="50.68077" lon="2.01582">
        <ele>151.31</ele>
        <time>2025-11-08T18:03:46.566Z</time>
      </trkpt>
      <trkpt lat="50.68081" lon="2.01567">
        <ele>152.63</ele>
        <time>2025-11-08T18:04:03.708Z</time>
      </trkpt>
      <trkpt lat="50.68083" lon="2.01545">
        <ele>154.08</ele>
        <time>2025-11-08T18:04:20.868Z</time>
      </trkpt>
      <trkpt lat="50.68085" lon="2.01541">
        <ele>155.68</ele>
        <time>2025-11-08T18:04:38.033Z</time>
      </trkpt>
      <trkpt lat="50.68092" lon="2.0156">
        <ele>157.53</ele>
        <time>2025-11-08T18:04:55.216Z</time>
      </trkpt>
      <trkpt lat="50.68098" lon="2.0156">
        <ele>159.49</ele>
        <time>2025-11-08T18:05:12.408Z</time>
      </trkpt>
      <trkpt lat="50.68113" lon="2.01533">
        <ele>161.75</ele>
        <time>2025-11-08T18:05:29.630Z</time>
      </trkpt>
      <trkpt lat="50.68127" lon="2.01505">
        <ele>164.04</ele>
        <time>2025-11-08T18:05:46.883Z</time>
      </trkpt>
      <trkpt lat="50.68141" lon="2.01477">
        <ele>166.06</ele>
        <time>2025-11-08T18:06:04.166Z</time>
      </trkpt>
      <trkpt lat="50.68156" lon="2.0146">
        <ele>168.04</ele>
        <time>2025-11-08T18:06:21.474Z</time>
      </trkpt>
      <trkpt lat="50.68171" lon="2.01442">
        <ele>169.98</ele>
        <time>2025-11-08T18:06:38.806Z</time>
      </trkpt>
      <trkpt lat="50.68186" lon="2.0143">
        <ele>171.74</ele>
        <time>2025-11-08T18:06:56.161Z</time>
      </trkpt>
      <trkpt lat="50.68201" lon="2.01417">
        <ele>173.31</ele>
        <time>2025-11-08T18:07:13.539Z</time>
      </trkpt>
      <trkpt lat="50.68203" lon="2.0145">
        <ele>174.64</ele>
        <time>2025-11-08T18:07:30.945Z</time>
      </trkpt>
      <trkpt lat="50.68206" lon="2.01483">
        <ele>175.81</ele>
        <time>2025-11-08T18:07:48.379Z</time>
      </trkpt>
      <trkpt lat="50.68208" lon="2.01515">
        <ele>176.83</ele>
        <time>2025-11-08T18:08:05.841Z</time>
      </trkpt>
      <trkpt lat="50.68207" lon="2.01547">
        <ele>177.67</ele>
        <time>2025-11-08T18:08:23.330Z</time>
      </trkpt>
      <trkpt lat="50.68206" lon="2.01578">
        <ele>178.36</ele>
        <time>2025-11-08T18:08:40.845Z</time>
      </trkpt>
      <trkpt lat="50.68207" lon="2.01616">
        <ele>178.83</ele>
        <time>2025-11-08T18:08:58.393Z</time>
      </trkpt>
      <trkpt lat="50.68209" lon="2.01654">
        <ele>179.35</ele>
        <time>2025-11-08T18:09:15.973Z</time>
      </trkpt>
      <trkpt lat="50.6821" lon="2.01692">
        <ele>179.82</ele>
        <time>2025-11-08T18:09:33.585Z</time>
      </trkpt>
      <trkpt lat="50.68212" lon="2.0173">
        <ele>180.17</ele>
        <time>2025-11-08T18:09:51.230Z</time>
      </trkpt>
      <trkpt lat="50.68216" lon="2.01775">
        <ele>180.46</ele>
        <time>2025-11-08T18:10:08.913Z</time>
      </trkpt>
      <trkpt lat="50.68219" lon="2.01821">
        <ele>180.65</ele>
        <time>2025-11-08T18:10:26.635Z</time>
      </trkpt>
      <trkpt lat="50.68223" lon="2.01866">
        <ele>180.8</ele>
        <time>2025-11-08T18:10:44.396Z</time>
      </trkpt>
      <trkpt lat="50.68226" lon="2.01912">
        <ele>180.84</ele>
        <time>2025-11-08T18:11:02.196Z</time>
      </trkpt>
      <trkpt lat="50.6823" lon="2.01957">
        <ele>181</ele>
        <time>2025-11-08T18:11:20.035Z</time>
      </trkpt>
      <trkpt lat="50.68233" lon="2.02003">
        <ele>181.09</ele>
        <time>2025-11-08T18:11:37.913Z</time>
      </trkpt>
      <trkpt lat="50.68237" lon="2.02048">
        <ele>181.18</ele>
        <time>2025-11-08T18:11:55.829Z</time>
      </trkpt>
      <trkpt lat="50.6824" lon="2.02093">
        <ele>181.29</ele>
        <time>2025-11-08T18:12:13.783Z</time>
      </trkpt>
      <trkpt lat="50.68243" lon="2.02137">
        <ele>181.34</ele>
        <time>2025-11-08T18:12:31.776Z</time>
      </trkpt>
      <trkpt lat="50.68247" lon="2.02182">
        <ele>181.39</ele>
        <time>2025-11-08T18:12:49.807Z</time>
      </trkpt>
      <trkpt lat="50.6825" lon="2.02227">
        <ele>181.44</ele>
        <time>2025-11-08T18:13:07.876Z</time>
      </trkpt>
      <trkpt lat="50.68254" lon="2.02272">
        <ele>181.53</ele>
        <time>2025-11-08T18:13:25.983Z</time>
      </trkpt>
      <trkpt lat="50.68257" lon="2.02316">
        <ele>181.53</ele>
        <time>2025-11-08T18:13:44.128Z</time>
      </trkpt>
      <trkpt lat="50.68257" lon="2.02316">
        <ele>181.52</ele>
        <time>2025-11-08T18:14:02.273Z</time>
      </trkpt>
      <trkpt lat="50.68259" lon="2.02362">
        <ele>181.49</ele>
        <time>2025-11-08T18:14:20.457Z</time>
      </trkpt>
      <trkpt lat="50.68261" lon="2.02408">
        <ele>181.44</ele>
        <time>2025-11-08T18:14:38.681Z</time>
      </trkpt>
      <trkpt lat="50.68265" lon="2.02435">
        <ele>181.36</ele>
        <time>2025-11-08T18:14:56.928Z</time>
      </trkpt>
      <trkpt lat="50.68268" lon="2.02462">
        <ele>181.26</ele>
        <time>2025-11-08T18:15:15.198Z</time>
      </trkpt>
      <trkpt lat="50.68273" lon="2.0249">
        <ele>181.13</ele>
        <time>2025-11-08T18:15:33.493Z</time>
      </trkpt>
      <trkpt lat="50.68279" lon="2.02518">
        <ele>181.02</ele>
        <time>2025-11-08T18:15:51.812Z</time>
      </trkpt>
      <trkpt lat="50.68291" lon="2.02562">
        <ele>180.81</ele>
        <time>2025-11-08T18:16:10.172Z</time>
      </trkpt>
      <trkpt lat="50.68304" lon="2.02605">
        <ele>180.57</ele>
        <time>2025-11-08T18:16:28.573Z</time>
      </trkpt>
      <trkpt lat="50.68319" lon="2.02641">
        <ele>180.31</ele>
        <time>2025-11-08T18:16:47.011Z</time>
      </trkpt>
      <trkpt lat="50.68334" lon="2.02677">
        <ele>180.03</ele>
        <time>2025-11-08T18:17:05.485Z</time>
      </trkpt>
      <trkpt lat="50.68349" lon="2.02713">
        <ele>179.68</ele>
        <time>2025-11-08T18:17:23.995Z</time>
      </trkpt>
      <trkpt lat="50.68363" lon="2.02742">
        <ele>179.3</ele>
        <time>2025-11-08T18:17:42.536Z</time>
      </trkpt>
      <trkpt lat="50.68377" lon="2.02771">
        <ele>178.86</ele>
        <time>2025-11-08T18:18:01.108Z</time>
      </trkpt>
      <trkpt lat="50.68391" lon="2.02799">
        <ele>178.37</ele>
        <time>2025-11-08T18:18:19.710Z</time>
      </trkpt>
      <trkpt lat="50.68404" lon="2.02827">
        <ele>177.89</ele>
        <time>2025-11-08T18:18:38.342Z</time>
      </trkpt>
      <trkpt lat="50.68418" lon="2.02854">
        <ele>177.38</ele>
        <time>2025-11-08T18:18:57.004Z</time>
      </trkpt>
      <trkpt lat="50.68435" lon="2.02889">
        <ele>176.84</ele>
        <time>2025-11-08T18:19:15.703Z</time>
      </trkpt>
      <trkpt lat="50.68449" lon="2.02924">
        <ele>176.35</ele>
        <time>2025-11-08T18:19:34.437Z</time>
      </trkpt>
      <trkpt lat="50.68463" lon="2.0296">
        <ele>175.8</ele>
        <time>2025-11-08T18:19:53.206Z</time>
      </trkpt>
      <trkpt lat="50.68482" lon="2.02997">
        <ele>175.29</ele>
        <time>2025-11-08T18:20:12.015Z</time>
      </trkpt>
      <trkpt lat="50.685" lon="2.03033">
        <ele>174.73</ele>
        <time>2025-11-08T18:20:30.864Z</time>
      </trkpt>
      <trkpt lat="50.68519" lon="2.0307">
        <ele>174.06</ele>
        <time>2025-11-08T18:20:49.753Z</time>
      </trkpt>
      <trkpt lat="50.68537" lon="2.03107">
        <ele>173.42</ele>
        <time>2025-11-08T18:21:08.682Z</time>
      </trkpt>
      <trkpt lat="50.68555" lon="2.03144">
        <ele>172.8</ele>
        <time>2025-11-08T18:21:27.650Z</time>
      </trkpt>
      <trkpt lat="50.68562" lon="2.03155">
        <ele>172.15</ele>
        <time>2025-11-08T18:21:46.631Z</time>
      </trkpt>
      <trkpt lat="50.68579" lon="2.03185">
        <ele>171.48</ele>
        <time>2025-11-08T18:22:05.646Z</time>
      </trkpt>
      <trkpt lat="50.68596" lon="2.03215">
        <ele>170.73</ele>
        <time>2025-11-08T18:22:24.695Z</time>
      </trkpt>
      <trkpt lat="50.68609" lon="2.0324">
        <ele>169.87</ele>
        <time>2025-11-08T18:22:43.772Z</time>
      </trkpt>
      <trkpt lat="50.68622" lon="2.03264">
        <ele>169.05</ele>
        <time>2025-11-08T18:23:02.876Z</time>
      </trkpt>
      <trkpt lat="50.68641" lon="2.03301">
        <ele>168.27</ele>
        <time>2025-11-08T18:23:22.020Z</time>
      </trkpt>
      <trkpt lat="50.68641" lon="2.03301">
        <ele>167.55</ele>
        <time>2025-11-08T18:23:41.164Z</time>
      </trkpt>
      <trkpt lat="50.68652" lon="2.03327">
        <ele>166.78</ele>
        <time>2025-11-08T18:24:00.334Z</time>
      </trkpt>
      <trkpt lat="50.68663" lon="2.03352">
        <ele>165.98</ele>
        <time>2025-11-08T18:24:19.530Z</time>
      </trkpt>
      <trkpt lat="50.68671" lon="2.03374">
        <ele>165.27</ele>
        <time>2025-11-08T18:24:38.748Z</time>
      </trkpt>
      <trkpt lat="50.6868" lon="2.03397">
        <ele>164.55</ele>
        <time>2025-11-08T18:24:57.989Z</time>
      </trkpt>
      <trkpt lat="50.68687" lon="2.03423">
        <ele>163.86</ele>
        <time>2025-11-08T18:25:17.254Z</time>
      </trkpt>
      <trkpt lat="50.68695" lon="2.03449">
        <ele>163.16</ele>
        <time>2025-11-08T18:25:36.543Z</time>
      </trkpt>
      <trkpt lat="50.68708" lon="2.03493">
        <ele>162.55</ele>
        <time>2025-11-08T18:25:55.873Z</time>
      </trkpt>
      <trkpt lat="50.68722" lon="2.03536">
        <ele>161.96</ele>
        <time>2025-11-08T18:26:15.244Z</time>
      </trkpt>
      <trkpt lat="50.68736" lon="2.0358">
        <ele>161.45</ele>
        <time>2025-11-08T18:26:34.656Z</time>
      </trkpt>
      <trkpt lat="50.68744" lon="2.03604">
        <ele>161.06</ele>
        <time>2025-11-08T18:26:54.092Z</time>
      </trkpt>
      <trkpt lat="50.68753" lon="2.03629">
        <ele>160.68</ele>
        <time>2025-11-08T18:27:13.552Z</time>
      </trkpt>
      <trkpt lat="50.6876" lon="2.03652">
        <ele>160.4</ele>
        <time>2025-11-08T18:27:33.034Z</time>
      </trkpt>
      <trkpt lat="50.68768" lon="2.03674">
        <ele>160.11</ele>
        <time>2025-11-08T18:27:52.537Z</time>
      </trkpt>
      <trkpt lat="50.68781" lon="2.03715">
        <ele>159.83</ele>
        <time>2025-11-08T18:28:12.079Z</time>
      </trkpt>
      <trkpt lat="50.68789" lon="2.03736">
        <ele>159.61</ele>
        <time>2025-11-08T18:28:31.642Z</time>
      </trkpt>
      <trkpt lat="50.68806" lon="2.03772">
        <ele>159.55</ele>
        <time>2025-11-08T18:28:51.243Z</time>
      </trkpt>
      <trkpt lat="50.68824" lon="2.03808">
        <ele>159.58</ele>
        <time>2025-11-08T18:29:10.883Z</time>
      </trkpt>
      <trkpt lat="50.68841" lon="2.03844">
        <ele>159.65</ele>
        <time>2025-11-08T18:29:30.560Z</time>
      </trkpt>
      <trkpt lat="50.68853" lon="2.03863">
        <ele>159.77</ele>
        <time>2025-11-08T18:29:50.260Z</time>
      </trkpt>
      <trkpt lat="50.68864" lon="2.03882">
        <ele>159.94</ele>
        <time>2025-11-08T18:30:09.983Z</time>
      </trkpt>
      <trkpt lat="50.68875" lon="2.03899">
        <ele>160.12</ele>
        <time>2025-11-08T18:30:29.726Z</time>
      </trkpt>
      <trkpt lat="50.68884" lon="2.0391">
        <ele>160.37</ele>
        <time>2025-11-08T18:30:49.484Z</time>
      </trkpt>
      <trkpt lat="50.68894" lon="2.03932">
        <ele>160.67</ele>
        <time>2025-11-08T18:31:09.265Z</time>
      </trkpt>
      <trkpt lat="50.68905" lon="2.03962">
        <ele>160.99</ele>
        <time>2025-11-08T18:31:29.075Z</time>
      </trkpt>
      <trkpt lat="50.68912" lon="2.03987">
        <ele>161.3</ele>
        <time>2025-11-08T18:31:48.909Z</time>
      </trkpt>
      <trkpt lat="50.68918" lon="2.04013">
        <ele>161.58</ele>
        <time>2025-11-08T18:32:08.766Z</time>
      </trkpt>
      <trkpt lat="50.68927" lon="2.04043">
        <ele>161.8</ele>
        <time>2025-11-08T18:32:28.651Z</time>
      </trkpt>
      <trkpt lat="50.68934" lon="2.04073">
        <ele>162.14</ele>
        <time>2025-11-08T18:32:48.564Z</time>
      </trkpt>
      <trkpt lat="50.68942" lon="2.04103">
        <ele>162.56</ele>
        <time>2025-11-08T18:33:08.504Z</time>
      </trkpt>
      <trkpt lat="50.6895" lon="2.04138">
        <ele>163.07</ele>
        <time>2025-11-08T18:33:28.475Z</time>
      </trkpt>
      <trkpt lat="50.68963" lon="2.04176">
        <ele>163.5</ele>
        <time>2025-11-08T18:33:48.483Z</time>
      </trkpt>
      <trkpt lat="50.68972" lon="2.04208">
        <ele>163.76</ele>
        <time>2025-11-08T18:34:08.521Z</time>
      </trkpt>
      <trkpt lat="50.6898" lon="2.04233">
        <ele>163.96</ele>
        <time>2025-11-08T18:34:28.583Z</time>
      </trkpt>
      <trkpt lat="50.68986" lon="2.0425">
        <ele>164.05</ele>
        <time>2025-11-08T18:34:48.661Z</time>
      </trkpt>
      <trkpt lat="50.68989" lon="2.04258">
        <ele>164.05</ele>
        <time>2025-11-08T18:35:08.746Z</time>
      </trkpt>
      <trkpt lat="50.68997" lon="2.04288">
        <ele>164.02</ele>
        <time>2025-11-08T18:35:28.859Z</time>
      </trkpt>
      <trkpt lat="50.69006" lon="2.0432">
        <ele>163.75</ele>
        <time>2025-11-08T18:35:49.002Z</time>
      </trkpt>
      <trkpt lat="50.69012" lon="2.04359">
        <ele>163.33</ele>
        <time>2025-11-08T18:36:09.179Z</time>
      </trkpt>
      <trkpt lat="50.69019" lon="2.04398">
        <ele>162.92</ele>
        <time>2025-11-08T18:36:29.391Z</time>
      </trkpt>
      <trkpt lat="50.69025" lon="2.04438">
        <ele>162.52</ele>
        <time>2025-11-08T18:36:49.637Z</time>
      </trkpt>
      <trkpt lat="50.69032" lon="2.04477">
        <ele>162.16</ele>
        <time>2025-11-08T18:37:09.917Z</time>
      </trkpt>
      <trkpt lat="50.69037" lon="2.04525">
        <ele>161.84</ele>
        <time>2025-11-08T18:37:30.239Z</time>
      </trkpt>
      <trkpt lat="50.69041" lon="2.04573">
        <ele>161.54</ele>
        <time>2025-11-08T18:37:50.602Z</time>
      </trkpt>
      <trkpt lat="50.69046" lon="2.04622">
        <ele>161.33</ele>
        <time>2025-11-08T18:38:11.007Z</time>
      </trkpt>
      <trkpt lat="50.69051" lon="2.0467">
        <ele>161.07</ele>
        <time>2025-11-08T18:38:31.453Z</time>
      </trkpt>
      <trkpt lat="50.69054" lon="2.04701">
        <ele>160.71</ele>
        <time>2025-11-08T18:38:51.926Z</time>
      </trkpt>
      <trkpt lat="50.69057" lon="2.04732">
        <ele>160.42</ele>
        <time>2025-11-08T18:39:12.425Z</time>
      </trkpt>
      <trkpt lat="50.69064" lon="2.04777">
        <ele>160.26</ele>
        <time>2025-11-08T18:39:32.964Z</time>
      </trkpt>
      <trkpt lat="50.69071" lon="2.04817">
        <ele>160.05</ele>
        <time>2025-11-08T18:39:53.538Z</time>
      </trkpt>
      <trkpt lat="50.69078" lon="2.04857">
        <ele>159.75</ele>
        <time>2025-11-08T18:40:14.147Z</time>
      </trkpt>
      <trkpt lat="50.69085" lon="2.04897">
        <ele>159.41</ele>
        <time>2025-11-08T18:40:34.791Z</time>
      </trkpt>
      <trkpt lat="50.6909" lon="2.0494">
        <ele>159.13</ele>
        <time>2025-11-08T18:40:55.472Z</time>
      </trkpt>
      <trkpt lat="50.69092" lon="2.04985">
        <ele>159.02</ele>
        <time>2025-11-08T18:41:16.192Z</time>
      </trkpt>
      <trkpt lat="50.69092" lon="2.04994">
        <ele>158.89</ele>
        <time>2025-11-08T18:41:36.919Z</time>
      </trkpt>
      <trkpt lat="50.69085" lon="2.05028">
        <ele>158.81</ele>
        <time>2025-11-08T18:41:57.676Z</time>
      </trkpt>
      <trkpt lat="50.69077" lon="2.05065">
        <ele>158.62</ele>
        <time>2025-11-08T18:42:18.466Z</time>
      </trkpt>
      <trkpt lat="50.69074" lon="2.05096">
        <ele>158.43</ele>
        <time>2025-11-08T18:42:39.283Z</time>
      </trkpt>
      <trkpt lat="50.6907" lon="2.05127">
        <ele>158.2</ele>
        <time>2025-11-08T18:43:00.127Z</time>
      </trkpt>
      <trkpt lat="50.69066" lon="2.05164">
        <ele>157.98</ele>
        <time>2025-11-08T18:43:21.003Z</time>
      </trkpt>
      <trkpt lat="50.69062" lon="2.05202">
        <ele>157.72</ele>
        <time>2025-11-08T18:43:41.911Z</time>
      </trkpt>
      <trkpt lat="50.69056" lon="2.05245">
        <ele>157.34</ele>
        <time>2025-11-08T18:44:02.857Z</time>
      </trkpt>
      <trkpt lat="50.69051" lon="2.05288">
        <ele>156.91</ele>
        <time>2025-11-08T18:44:23.840Z</time>
      </trkpt>
      <trkpt lat="50.69043" lon="2.05324">
        <ele>156.35</ele>
        <time>2025-11-08T18:44:44.855Z</time>
      </trkpt>
      <trkpt lat="50.69035" lon="2.05361">
        <ele>155.64</ele>
        <time>2025-11-08T18:45:05.903Z</time>
      </trkpt>
      <trkpt lat="50.69027" lon="2.05397">
        <ele>154.91</ele>
        <time>2025-11-08T18:45:26.984Z</time>
      </trkpt>
      <trkpt lat="50.69019" lon="2.05434">
        <ele>154.07</ele>
        <time>2025-11-08T18:45:48.098Z</time>
      </trkpt>
      <trkpt lat="50.69012" lon="2.05469">
        <ele>153.1</ele>
        <time>2025-11-08T18:46:09.243Z</time>
      </trkpt>
      <trkpt lat="50.69006" lon="2.05505">
        <ele>152</ele>
        <time>2025-11-08T18:46:30.420Z</time>
      </trkpt>
      <trkpt lat="50.69" lon="2.05541">
        <ele>150.72</ele>
        <time>2025-11-08T18:46:51.628Z</time>
      </trkpt>
      <trkpt lat="50.69" lon="2.05541">
        <ele>149.34</ele>
        <time>2025-11-08T18:47:12.836Z</time>
      </trkpt>
      <trkpt lat="50.68992" lon="2.05583">
        <ele>147.7</ele>
        <time>2025-11-08T18:47:34.082Z</time>
      </trkpt>
      <trkpt lat="50.68985" lon="2.05626">
        <ele>145.85</ele>
        <time>2025-11-08T18:47:55.365Z</time>
      </trkpt>
      <trkpt lat="50.68978" lon="2.05669">
        <ele>143.76</ele>
        <time>2025-11-08T18:48:16.685Z</time>
      </trkpt>
      <trkpt lat="50.6897" lon="2.05711">
        <ele>141.54</ele>
        <time>2025-11-08T18:48:38.043Z</time>
      </trkpt>
      <trkpt lat="50.68963" lon="2.05753">
        <ele>139.15</ele>
        <time>2025-11-08T18:48:59.438Z</time>
      </trkpt>
      <trkpt lat="50.68952" lon="2.05798">
        <ele>136.58</ele>
        <time>2025-11-08T18:49:20.874Z</time>
      </trkpt>
      <trkpt lat="50.68941" lon="2.05844">
        <ele>134.04</ele>
        <time>2025-11-08T18:49:42.351Z</time>
      </trkpt>
      <trkpt lat="50.6893" lon="2.05889">
        <ele>131.35</ele>
        <time>2025-11-08T18:50:03.869Z</time>
      </trkpt>
      <trkpt lat="50.68919" lon="2.05934">
        <ele>128.34</ele>
        <time>2025-11-08T18:50:25.428Z</time>
      </trkpt>
      <trkpt lat="50.68907" lon="2.05979">
        <ele>125.42</ele>
        <time>2025-11-08T18:50:47.028Z</time>
      </trkpt>
      <trkpt lat="50.68897" lon="2.06024">
        <ele>122.52</ele>
        <time>2025-11-08T18:51:08.669Z</time>
      </trkpt>
      <trkpt lat="50.68884" lon="2.06058">
        <ele>119.62</ele>
        <time>2025-11-08T18:51:30.343Z</time>
      </trkpt>
      <trkpt lat="50.68873" lon="2.06081">
        <ele>116.77</ele>
        <time>2025-11-08T18:51:52.041Z</time>
      </trkpt>
      <trkpt lat="50.68862" lon="2.06103">
        <ele>113.93</ele>
        <time>2025-11-08T18:52:13.763Z</time>
      </trkpt>
      <trkpt lat="50.68844" lon="2.06139">
        <ele>111.02</ele>
        <time>2025-11-08T18:52:35.524Z</time>
      </trkpt>
      <trkpt lat="50.68825" lon="2.06174">
        <ele>108.15</ele>
        <time>2025-11-08T18:52:57.324Z</time>
      </trkpt>
      <trkpt lat="50.68806" lon="2.0621">
        <ele>105.4</ele>
        <time>2025-11-08T18:53:19.164Z</time>
      </trkpt>
      <trkpt lat="50.68788" lon="2.06245">
        <ele>102.73</ele>
        <time>2025-11-08T18:53:41.042Z</time>
      </trkpt>
      <trkpt lat="50.6877" lon="2.06278">
        <ele>100.16</ele>
        <time>2025-11-08T18:54:02.957Z</time>
      </trkpt>
      <trkpt lat="50.68752" lon="2.06312">
        <ele>97.79</ele>
        <time>2025-11-08T18:54:24.909Z</time>
      </trkpt>
      <trkpt lat="50.68735" lon="2.06345">
        <ele>95.51</ele>
        <time>2025-11-08T18:54:46.898Z</time>
      </trkpt>
      <trkpt lat="50.68717" lon="2.06379">
        <ele>93.38</ele>
        <time>2025-11-08T18:55:08.924Z</time>
      </trkpt>
      <trkpt lat="50.687" lon="2.06412">
        <ele>91.42</ele>
        <time>2025-11-08T18:55:30.986Z</time>
      </trkpt>
      <trkpt lat="50.68682" lon="2.06446">
        <ele>89.66</ele>
        <time>2025-11-08T18:55:53.085Z</time>
      </trkpt>
      <trkpt lat="50.68665" lon="2.06479">
        <ele>88.07</ele>
        <time>2025-11-08T18:56:15.221Z</time>
      </trkpt>
      <trkpt lat="50.68684" lon="2.06515">
        <ele>86.78</ele>
        <time>2025-11-08T18:56:37.397Z</time>
      </trkpt>
      <trkpt lat="50.68703" lon="2.06552">
        <ele>85.65</ele>
        <time>2025-11-08T18:56:59.613Z</time>
      </trkpt>
      <trkpt lat="50.68725" lon="2.06584">
        <ele>84.68</ele>
        <time>2025-11-08T18:57:21.869Z</time>
      </trkpt>
      <trkpt lat="50.68747" lon="2.06617">
        <ele>83.76</ele>
        <time>2025-11-08T18:57:44.166Z</time>
      </trkpt>
      <trkpt lat="50.68769" lon="2.06649">
        <ele>82.89</ele>
        <time>2025-11-08T18:58:06.503Z</time>
      </trkpt>
      <trkpt lat="50.68791" lon="2.06682">
        <ele>82.23</ele>
        <time>2025-11-08T18:58:28.880Z</time>
      </trkpt>
      <trkpt lat="50.68813" lon="2.06714">
        <ele>81.81</ele>
        <time>2025-11-08T18:58:51.298Z</time>
      </trkpt>
      <trkpt lat="50.68835" lon="2.06747">
        <ele>81.43</ele>
        <time>2025-11-08T18:59:13.756Z</time>
      </trkpt>
      <trkpt lat="50.68857" lon="2.06779">
        <ele>81.15</ele>
        <time>2025-11-08T18:59:36.254Z</time>
      </trkpt>
      <trkpt lat="50.68879" lon="2.06812">
        <ele>80.89</ele>
        <time>2025-11-08T18:59:58.792Z</time>
      </trkpt>
      <trkpt lat="50.68901" lon="2.06845">
        <ele>80.68</ele>
        <time>2025-11-08T19:00:21.371Z</time>
      </trkpt>
      <trkpt lat="50.68923" lon="2.06877">
        <ele>80.5</ele>
        <time>2025-11-08T19:00:43.990Z</time>
      </trkpt>
      <trkpt lat="50.68945" lon="2.0691">
        <ele>80.29</ele>
        <time>2025-11-08T19:01:06.649Z</time>
      </trkpt>
      <trkpt lat="50.68967" lon="2.06942">
        <ele>80.12</ele>
        <time>2025-11-08T19:01:29.349Z</time>
      </trkpt>
      <trkpt lat="50.68989" lon="2.06974">
        <ele>80.05</ele>
        <time>2025-11-08T19:01:52.088Z</time>
      </trkpt>
      <trkpt lat="50.68982" lon="2.06994">
        <ele>79.85</ele>
        <time>2025-11-08T19:02:14.846Z</time>
      </trkpt>
      <trkpt lat="50.68985" lon="2.06998">
        <ele>79.73</ele>
        <time>2025-11-08T19:02:37.608Z</time>
      </trkpt>
      <trkpt lat="50.68985" lon="2.06998">
        <ele>79.61</ele>
        <time>2025-11-08T19:03:00.370Z</time>
      </trkpt>
      <trkpt lat="50.69007" lon="2.07032">
        <ele>79.39</ele>
        <time>2025-11-08T19:03:23.174Z</time>
      </trkpt>
      <trkpt lat="50.6903" lon="2.07065">
        <ele>79.2</ele>
        <time>2025-11-08T19:03:46.020Z</time>
      </trkpt>
      <trkpt lat="50.69053" lon="2.07099">
        <ele>79.01</ele>
        <time>2025-11-08T19:04:08.908Z</time>
      </trkpt>
      <trkpt lat="50.69076" lon="2.07133">
        <ele>78.72</ele>
        <time>2025-11-08T19:04:31.837Z</time>
      </trkpt>
      <trkpt lat="50.69099" lon="2.07166">
        <ele>78.43</ele>
        <time>2025-11-08T19:04:54.808Z</time>
      </trkpt>
      <trkpt lat="50.69121" lon="2.072">
        <ele>78.13</ele>
        <time>2025-11-08T19:05:17.821Z</time>
      </trkpt>
      <trkpt lat="50.69144" lon="2.07234">
        <ele>77.76</ele>
        <time>2025-11-08T19:05:40.876Z</time>
      </trkpt>
      <trkpt lat="50.69167" lon="2.07268">
        <ele>77.3</ele>
        <time>2025-11-08T19:06:03.972Z</time>
      </trkpt>
      <trkpt lat="50.6919" lon="2.07301">
        <ele>76.62</ele>
        <time>2025-11-08T19:06:27.110Z</time>
      </trkpt>
      <trkpt lat="50.69213" lon="2.07335">
        <ele>75.95</ele>
        <time>2025-11-08T19:06:50.290Z</time>
      </trkpt>
      <trkpt lat="50.69235" lon="2.07369">
        <ele>75.22</ele>
        <time>2025-11-08T19:07:13.512Z</time>
      </trkpt>
      <trkpt lat="50.69258" lon="2.07402">
        <ele>74.54</ele>
        <time>2025-11-08T19:07:36.776Z</time>
      </trkpt>
      <trkpt lat="50.69281" lon="2.07436">
        <ele>73.82</ele>
        <time>2025-11-08T19:08:00.081Z</time>
      </trkpt>
      <trkpt lat="50.69304" lon="2.07469">
        <ele>73.17</ele>
        <time>2025-11-08T19:08:23.427Z</time>
      </trkpt>
      <trkpt lat="50.69326" lon="2.07501">
        <ele>72.58</ele>
        <time>2025-11-08T19:08:46.814Z</time>
      </trkpt>
      <trkpt lat="50.69349" lon="2.07534">
        <ele>72.06</ele>
        <time>2025-11-08T19:09:10.243Z</time>
      </trkpt>
      <trkpt lat="50.69362" lon="2.07556">
        <ele>71.65</ele>
        <time>2025-11-08T19:09:33.697Z</time>
      </trkpt>
      <trkpt lat="50.69362" lon="2.07564">
        <ele>71.33</ele>
        <time>2025-11-08T19:09:57.158Z</time>
      </trkpt>
      <trkpt lat="50.69362" lon="2.07564">
        <ele>71.13</ele>
        <time>2025-11-08T19:10:20.619Z</time>
      </trkpt>
      <trkpt lat="50.69369" lon="2.07564">
        <ele>71.04</ele>
        <time>2025-11-08T19:10:44.089Z</time>
      </trkpt>
      <trkpt lat="50.69396" lon="2.07569">
        <ele>71.03</ele>
        <time>2025-11-08T19:11:07.596Z</time>
      </trkpt>
      <trkpt lat="50.69412" lon="2.07582">
        <ele>71.23</ele>
        <time>2025-11-08T19:11:31.126Z</time>
      </trkpt>
      <trkpt lat="50.69424" lon="2.07603">
        <ele>71.59</ele>
        <time>2025-11-08T19:11:54.681Z</time>
      </trkpt>
      <trkpt lat="50.69441" lon="2.07626">
        <ele>72.1</ele>
        <time>2025-11-08T19:12:18.265Z</time>
      </trkpt>
      <trkpt lat="50.69457" lon="2.07648">
        <ele>72.78</ele>
        <time>2025-11-08T19:12:41.877Z</time>
      </trkpt>
      <trkpt lat="50.69478" lon="2.07669">
        <ele>73.68</ele>
        <time>2025-11-08T19:13:05.523Z</time>
      </trkpt>
      <trkpt lat="50.69491" lon="2.07676">
        <ele>74.78</ele>
        <time>2025-11-08T19:13:29.187Z</time>
      </trkpt>
      <trkpt lat="50.69502" lon="2.07674">
        <ele>76.03</ele>
        <time>2025-11-08T19:13:52.866Z</time>
      </trkpt>
      <trkpt lat="50.69519" lon="2.07657">
        <ele>77.56</ele>
        <time>2025-11-08T19:14:16.572Z</time>
      </trkpt>
      <trkpt lat="50.69534" lon="2.07646">
        <ele>79.18</ele>
        <time>2025-11-08T19:14:40.300Z</time>
      </trkpt>
      <trkpt lat="50.69555" lon="2.07646">
        <ele>80.9</ele>
        <time>2025-11-08T19:15:04.057Z</time>
      </trkpt>
      <trkpt lat="50.6958" lon="2.07654">
        <ele>82.55</ele>
        <time>2025-11-08T19:15:27.848Z</time>
      </trkpt>
      <trkpt lat="50.69606" lon="2.07663">
        <ele>84.24</ele>
        <time>2025-11-08T19:15:51.673Z</time>
      </trkpt>
      <trkpt lat="50.69631" lon="2.07672">
        <ele>85.95</ele>
        <time>2025-11-08T19:16:15.533Z</time>
      </trkpt>
      <trkpt lat="50.69656" lon="2.0768">
        <ele>87.57</ele>
        <time>2025-11-08T19:16:39.427Z</time>
      </trkpt>
      <trkpt lat="50.69673" lon="2.07678">
        <ele>89.14</ele>
        <time>2025-11-08T19:17:03.344Z</time>
      </trkpt>
      <trkpt lat="50.69679" lon="2.07675">
        <ele>90.63</ele>
        <time>2025-11-08T19:17:27.269Z</time>
      </trkpt>
      <trkpt lat="50.69674" lon="2.07626">
        <ele>92.16</ele>
        <time>2025-11-08T19:17:51.236Z</time>
      </trkpt>
      <trkpt lat="50.6967" lon="2.07577">
        <ele>93.47</ele>
        <time>2025-11-08T19:18:15.245Z</time>
      </trkpt>
      <trkpt lat="50.69666" lon="2.07528">
        <ele>94.64</ele>
        <time>2025-11-08T19:18:39.296Z</time>
      </trkpt>
      <trkpt lat="50.69662" lon="2.07478">
        <ele>95.59</ele>
        <time>2025-11-08T19:19:03.389Z</time>
      </trkpt>
      <trkpt lat="50.69658" lon="2.07429">
        <ele>96.41</ele>
        <time>2025-11-08T19:19:27.524Z</time>
      </trkpt>
      <trkpt lat="50.69654" lon="2.0738">
        <ele>97.15</ele>
        <time>2025-11-08T19:19:51.701Z</time>
      </trkpt>
      <trkpt lat="50.69649" lon="2.07331">
        <ele>97.55</ele>
        <time>2025-11-08T19:20:15.920Z</time>
      </trkpt>
      <trkpt lat="50.69645" lon="2.07282">
        <ele>97.69</ele>
        <time>2025-11-08T19:20:40.181Z</time>
      </trkpt>
      <trkpt lat="50.69641" lon="2.07233">
        <ele>97.62</ele>
        <time>2025-11-08T19:21:04.484Z</time>
      </trkpt>
      <trkpt lat="50.69637" lon="2.07184">
        <ele>97.46</ele>
        <time>2025-11-08T19:21:28.829Z</time>
      </trkpt>
      <trkpt lat="50.69633" lon="2.07135">
        <ele>97.03</ele>
        <time>2025-11-08T19:21:53.216Z</time>
      </trkpt>
      <trkpt lat="50.69629" lon="2.07086">
        <ele>96.29</ele>
        <time>2025-11-08T19:22:17.645Z</time>
      </trkpt>
      <trkpt lat="50.69625" lon="2.07036">
        <ele>95.34</ele>
        <time>2025-11-08T19:22:42.116Z</time>
      </trkpt>
      <trkpt lat="50.69621" lon="2.06998">
        <ele>94.12</ele>
        <time>2025-11-08T19:23:06.620Z</time>
      </trkpt>
      <trkpt lat="50.69651" lon="2.06984">
        <ele>92.4</ele>
        <time>2025-11-08T19:23:31.166Z</time>
      </trkpt>
      <trkpt lat="50.69682" lon="2.06969">
        <ele>90.24</ele>
        <time>2025-11-08T19:23:55.754Z</time>
      </trkpt>
      <trkpt lat="50.69712" lon="2.06955">
        <ele>87.93</ele>
        <time>2025-11-08T19:24:20.384Z</time>
      </trkpt>
      <trkpt lat="50.6973" lon="2.06946">
        <ele>85.91</ele>
        <time>2025-11-08T19:24:45.039Z</time>
      </trkpt>
      <trkpt lat="50.69761" lon="2.06958">
        <ele>83.79</ele>
        <time>2025-11-08T19:25:09.736Z</time>
      </trkpt>
      <trkpt lat="50.69775" lon="2.06964">
        <ele>81.91</ele>
        <time>2025-11-08T19:25:34.453Z</time>
      </trkpt>
      <trkpt lat="50.69775" lon="2.06914">
        <ele>80.31</ele>
        <time>2025-11-08T19:25:59.212Z</time>
      </trkpt>
      <trkpt lat="50.69774" lon="2.06864">
        <ele>78.58</ele>
        <time>2025-11-08T19:26:24.013Z</time>
      </trkpt>
      <trkpt lat="50.69774" lon="2.06815">
        <ele>77.01</ele>
        <time>2025-11-08T19:26:48.856Z</time>
      </trkpt>
      <trkpt lat="50.69774" lon="2.06765">
        <ele>75.52</ele>
        <time>2025-11-08T19:27:13.741Z</time>
      </trkpt>
      <trkpt lat="50.69774" lon="2.06716">
        <ele>74.39</ele>
        <time>2025-11-08T19:27:38.668Z</time>
      </trkpt>
      <trkpt lat="50.69773" lon="2.06666">
        <ele>73.45</ele>
        <time>2025-11-08T19:28:03.637Z</time>
      </trkpt>
      <trkpt lat="50.69773" lon="2.06617">
        <ele>72.68</ele>
        <time>2025-11-08T19:28:28.648Z</time>
      </trkpt>
      <trkpt lat="50.69773" lon="2.06567">
        <ele>72.11</ele>
        <time>2025-11-08T19:28:53.701Z</time>
      </trkpt>
      <trkpt lat="50.69773" lon="2.06518">
        <ele>71.63</ele>
        <time>2025-11-08T19:29:18.796Z</time>
      </trkpt>
      <trkpt lat="50.69773" lon="2.06468">
        <ele>71.41</ele>
        <time>2025-11-08T19:29:43.933Z</time>
      </trkpt>
      <trkpt lat="50.69772" lon="2.06419">
        <ele>71.23</ele>
        <time>2025-11-08T19:30:09.112Z</time>
      </trkpt>
      <trkpt lat="50.69772" lon="2.06369">
        <ele>71.03</ele>
        <time>2025-11-08T19:30:34.333Z</time>
      </trkpt>
      <trkpt lat="50.69772" lon="2.0632">
        <ele>70.81</ele>
        <time>2025-11-08T19:30:59.596Z</time>
      </trkpt>
      <trkpt lat="50.69772" lon="2.0627">
        <ele>70.76</ele>
        <time>2025-11-08T19:31:24.901Z</time>
      </trkpt>
      <trkpt lat="50.69771" lon="2.0622">
        <ele>70.82</ele>
        <time>2025-11-08T19:31:50.248Z</time>
      </trkpt>
      <trkpt lat="50.69771" lon="2.06171">
        <ele>71.05</ele>
        <time>2025-11-08T19:32:15.637Z</time>
      </trkpt>
      <trkpt lat="50.69771" lon="2.06121">
        <ele>71.49</ele>
        <time>2025-11-08T19:32:41.068Z</time>
      </trkpt>
      <trkpt lat="50.69771" lon="2.06103">
        <ele>72.09</ele>
        <time>2025-11-08T19:33:06.515Z</time>
      </trkpt>
      <trkpt lat="50.69776" lon="2.06054">
        <ele>72.74</ele>
        <time>2025-11-08T19:33:32.004Z</time>
      </trkpt>
      <trkpt lat="50.6978" lon="2.06005">
        <ele>73.5</ele>
        <time>2025-11-08T19:33:57.535Z</time>
      </trkpt>
      <trkpt lat="50.69783" lon="2.05976">
        <ele>74.36</ele>
        <time>2025-11-08T19:34:23.090Z</time>
      </trkpt>
      <trkpt lat="50.69774" lon="2.05929">
        <ele>75.48</ele>
        <time>2025-11-08T19:34:48.687Z</time>
      </trkpt>
      <trkpt lat="50.69765" lon="2.05881">
        <ele>76.53</ele>
        <time>2025-11-08T19:35:14.326Z</time>
      </trkpt>
      <trkpt lat="50.69756" lon="2.05834">
        <ele>77.65</ele>
        <time>2025-11-08T19:35:40.007Z</time>
      </trkpt>
      <trkpt lat="50.69748" lon="2.05786">
        <ele>78.79</ele>
        <time>2025-11-08T19:36:05.730Z</time>
      </trkpt>
      <trkpt lat="50.69739" lon="2.05739">
        <ele>79.77</ele>
        <time>2025-11-08T19:36:31.495Z</time>
      </trkpt>
      <trkpt lat="50.6973" lon="2.05691">
        <ele>80.54</ele>
        <time>2025-11-08T19:36:57.302Z</time>
      </trkpt>
      <trkpt lat="50.69723" lon="2.05657">
        <ele>81.05</ele>
        <time>2025-11-08T19:37:23.140Z</time>
      </trkpt>
      <trkpt lat="50.69737" lon="2.05612">
        <ele>81.31</ele>
        <time>2025-11-08T19:37:49.020Z</time>
      </trkpt>
      <trkpt lat="50.6975" lon="2.05567">
        <ele>81.41</ele>
        <time>2025-11-08T19:38:14.942Z</time>
      </trkpt>
      <trkpt lat="50.69755" lon="2.05552">
        <ele>81.37</ele>
        <time>2025-11-08T19:38:40.878Z</time>
      </trkpt>
      <trkpt lat="50.69767" lon="2.05506">
        <ele>81.17</ele>
        <time>2025-11-08T19:39:06.856Z</time>
      </trkpt>
      <trkpt lat="50.69779" lon="2.0546">
        <ele>81.09</ele>
        <time>2025-11-08T19:39:32.876Z</time>
      </trkpt>
      <trkpt lat="50.69791" lon="2.05414">
        <ele>80.71</ele>
        <time>2025-11-08T19:39:58.938Z</time>
      </trkpt>
      <trkpt lat="50.69803" lon="2.05369">
        <ele>80.28</ele>
        <time>2025-11-08T19:40:25.042Z</time>
      </trkpt>
      <trkpt lat="50.69815" lon="2.05323">
        <ele>80.01</ele>
        <time>2025-11-08T19:40:51.188Z</time>
      </trkpt>
      <trkpt lat="50.69817" lon="2.05316">
        <ele>79.98</ele>
        <time>2025-11-08T19:41:17.341Z</time>
      </trkpt>
      <trkpt lat="50.69821" lon="2.05266">
        <ele>80.04</ele>
        <time>2025-11-08T19:41:43.536Z</time>
      </trkpt>
      <trkpt lat="50.69825" lon="2.05217">
        <ele>80.18</ele>
        <time>2025-11-08T19:42:09.773Z</time>
      </trkpt>
      <trkpt lat="50.69829" lon="2.05168">
        <ele>80.15</ele>
        <time>2025-11-08T19:42:36.052Z</time>
      </trkpt>
      <trkpt lat="50.69831" lon="2.05142">
        <ele>80.09</ele>
        <time>2025-11-08T19:43:02.353Z</time>
      </trkpt>
      <trkpt lat="50.69855" lon="2.05131">
        <ele>79.9</ele>
        <time>2025-11-08T19:43:28.688Z</time>
      </trkpt>
      <trkpt lat="50.69879" lon="2.0512">
        <ele>79.82</ele>
        <time>2025-11-08T19:43:55.056Z</time>
      </trkpt>
      <trkpt lat="50.69903" lon="2.0511">
        <ele>79.82</ele>
        <time>2025-11-08T19:44:21.457Z</time>
      </trkpt>
    </trkseg>
  </trk>
</gpx>